<?xml version="1.0" encoding="UTF-8" standalone="no" ?>
<gpx xmlns="http://www.topografix.com/GPX/1/1" xmlns:xsi="http://www.w3.org/2001/XMLSchema-instance" xsi:schemaLocation="http://www.topografix.com/GPX/1/1 http://www.topografix.com/GPX/1/1/gpx.xsd" version="1.1" creator="VisuGPX - https://www.visugpx.com">
  <metadata>
    <name>28 juil. 2020</name>
    <desc><![CDATA[grp_trc:[nouvelles]]]></desc>
  </metadata>
  <trk>
    <name><![CDATA[28 juil. 2020]]></name>
    <cmt><![CDATA[07:32:35]]></cmt>
    <desc><![CDATA[comment ...]]></desc>
    <trkseg>
      <trkpt lat="45.26514" lon="4.78039">
        <ele>347</ele>
        <time>2020-07-28T05:32:35Z</time>
      </trkpt>
      <trkpt lat="45.26514" lon="4.78039">
        <ele>347</ele>
        <time>2020-07-28T05:32:36Z</time>
      </trkpt>
      <trkpt lat="45.26512" lon="4.7804">
        <ele>349</ele>
        <time>2020-07-28T05:33:06Z</time>
      </trkpt>
      <trkpt lat="45.26508" lon="4.78043">
        <ele>351</ele>
        <time>2020-07-28T05:33:08Z</time>
      </trkpt>
      <trkpt lat="45.26503" lon="4.78043">
        <ele>351</ele>
        <time>2020-07-28T05:33:10Z</time>
      </trkpt>
      <trkpt lat="45.26499" lon="4.78041">
        <ele>351</ele>
        <time>2020-07-28T05:33:12Z</time>
      </trkpt>
      <trkpt lat="45.26495" lon="4.78034">
        <ele>352</ele>
        <time>2020-07-28T05:33:16Z</time>
      </trkpt>
      <trkpt lat="45.26494" lon="4.78025">
        <ele>352</ele>
        <time>2020-07-28T05:33:20Z</time>
      </trkpt>
      <trkpt lat="45.2649" lon="4.78011">
        <ele>353</ele>
        <time>2020-07-28T05:33:26Z</time>
      </trkpt>
      <trkpt lat="45.26483" lon="4.77984">
        <ele>354</ele>
        <time>2020-07-28T05:33:34Z</time>
      </trkpt>
      <trkpt lat="45.26474" lon="4.77956">
        <ele>356</ele>
        <time>2020-07-28T05:33:41Z</time>
      </trkpt>
      <trkpt lat="45.26474" lon="4.7794">
        <ele>356</ele>
        <time>2020-07-28T05:33:44Z</time>
      </trkpt>
      <trkpt lat="45.26477" lon="4.77925">
        <ele>356</ele>
        <time>2020-07-28T05:33:47Z</time>
      </trkpt>
      <trkpt lat="45.2652" lon="4.77809">
        <ele>359</ele>
        <time>2020-07-28T05:34:19Z</time>
      </trkpt>
      <trkpt lat="45.26557" lon="4.77716">
        <ele>364</ele>
        <time>2020-07-28T05:34:49Z</time>
      </trkpt>
      <trkpt lat="45.26602" lon="4.77627">
        <ele>369</ele>
        <time>2020-07-28T05:35:19Z</time>
      </trkpt>
      <trkpt lat="45.26611" lon="4.77602">
        <ele>369</ele>
        <time>2020-07-28T05:35:26Z</time>
      </trkpt>
      <trkpt lat="45.26613" lon="4.77585">
        <ele>369</ele>
        <time>2020-07-28T05:35:30Z</time>
      </trkpt>
      <trkpt lat="45.26612" lon="4.77555">
        <ele>369</ele>
        <time>2020-07-28T05:35:37Z</time>
      </trkpt>
      <trkpt lat="45.26591" lon="4.7739">
        <ele>368</ele>
        <time>2020-07-28T05:36:07Z</time>
      </trkpt>
      <trkpt lat="45.26568" lon="4.77127">
        <ele>364</ele>
        <time>2020-07-28T05:36:37Z</time>
      </trkpt>
      <trkpt lat="45.26563" lon="4.77104">
        <ele>364</ele>
        <time>2020-07-28T05:36:40Z</time>
      </trkpt>
      <trkpt lat="45.2652" lon="4.76992">
        <ele>366</ele>
        <time>2020-07-28T05:36:57Z</time>
      </trkpt>
      <trkpt lat="45.26491" lon="4.76779">
        <ele>368</ele>
        <time>2020-07-28T05:37:27Z</time>
      </trkpt>
      <trkpt lat="45.26445" lon="4.7661">
        <ele>369</ele>
        <time>2020-07-28T05:37:52Z</time>
      </trkpt>
      <trkpt lat="45.26421" lon="4.76458">
        <ele>370</ele>
        <time>2020-07-28T05:38:13Z</time>
      </trkpt>
      <trkpt lat="45.2643" lon="4.76275">
        <ele>370</ele>
        <time>2020-07-28T05:38:37Z</time>
      </trkpt>
      <trkpt lat="45.26412" lon="4.76164">
        <ele>371</ele>
        <time>2020-07-28T05:38:53Z</time>
      </trkpt>
      <trkpt lat="45.26415" lon="4.76104">
        <ele>371</ele>
        <time>2020-07-28T05:39:01Z</time>
      </trkpt>
      <trkpt lat="45.26435" lon="4.75953">
        <ele>367</ele>
        <time>2020-07-28T05:39:19Z</time>
      </trkpt>
      <trkpt lat="45.26432" lon="4.7593">
        <ele>366</ele>
        <time>2020-07-28T05:39:21Z</time>
      </trkpt>
      <trkpt lat="45.26424" lon="4.75908">
        <ele>365</ele>
        <time>2020-07-28T05:39:23Z</time>
      </trkpt>
      <trkpt lat="45.26413" lon="4.7589">
        <ele>364</ele>
        <time>2020-07-28T05:39:25Z</time>
      </trkpt>
      <trkpt lat="45.26392" lon="4.7587">
        <ele>364</ele>
        <time>2020-07-28T05:39:28Z</time>
      </trkpt>
      <trkpt lat="45.26332" lon="4.75836">
        <ele>364</ele>
        <time>2020-07-28T05:39:36Z</time>
      </trkpt>
      <trkpt lat="45.26317" lon="4.75818">
        <ele>365</ele>
        <time>2020-07-28T05:39:39Z</time>
      </trkpt>
      <trkpt lat="45.26301" lon="4.75779">
        <ele>367</ele>
        <time>2020-07-28T05:39:45Z</time>
      </trkpt>
      <trkpt lat="45.26291" lon="4.75748">
        <ele>369</ele>
        <time>2020-07-28T05:39:50Z</time>
      </trkpt>
      <trkpt lat="45.26288" lon="4.7572">
        <ele>369</ele>
        <time>2020-07-28T05:39:54Z</time>
      </trkpt>
      <trkpt lat="45.26294" lon="4.7564">
        <ele>369</ele>
        <time>2020-07-28T05:40:05Z</time>
      </trkpt>
      <trkpt lat="45.26301" lon="4.75607">
        <ele>370</ele>
        <time>2020-07-28T05:40:10Z</time>
      </trkpt>
      <trkpt lat="45.26332" lon="4.75502">
        <ele>368</ele>
        <time>2020-07-28T05:40:24Z</time>
      </trkpt>
      <trkpt lat="45.26373" lon="4.75274">
        <ele>371</ele>
        <time>2020-07-28T05:40:54Z</time>
      </trkpt>
      <trkpt lat="45.26427" lon="4.75027">
        <ele>368</ele>
        <time>2020-07-28T05:41:24Z</time>
      </trkpt>
      <trkpt lat="45.26494" lon="4.74792">
        <ele>368</ele>
        <time>2020-07-28T05:41:54Z</time>
      </trkpt>
      <trkpt lat="45.26577" lon="4.74593">
        <ele>371</ele>
        <time>2020-07-28T05:42:24Z</time>
      </trkpt>
      <trkpt lat="45.26628" lon="4.74457">
        <ele>373</ele>
        <time>2020-07-28T05:42:46Z</time>
      </trkpt>
      <trkpt lat="45.26704" lon="4.7434">
        <ele>375</ele>
        <time>2020-07-28T05:43:09Z</time>
      </trkpt>
      <trkpt lat="45.26721" lon="4.74294">
        <ele>375</ele>
        <time>2020-07-28T05:43:16Z</time>
      </trkpt>
      <trkpt lat="45.26766" lon="4.74065">
        <ele>375</ele>
        <time>2020-07-28T05:43:46Z</time>
      </trkpt>
      <trkpt lat="45.26785" lon="4.73979">
        <ele>375</ele>
        <time>2020-07-28T05:43:57Z</time>
      </trkpt>
      <trkpt lat="45.26792" lon="4.73965">
        <ele>375</ele>
        <time>2020-07-28T05:43:59Z</time>
      </trkpt>
      <trkpt lat="45.26796" lon="4.73959">
        <ele>375</ele>
        <time>2020-07-28T05:44:00Z</time>
      </trkpt>
      <trkpt lat="45.26802" lon="4.73957">
        <ele>375</ele>
        <time>2020-07-28T05:44:01Z</time>
      </trkpt>
      <trkpt lat="45.26872" lon="4.73965">
        <ele>376</ele>
        <time>2020-07-28T05:44:14Z</time>
      </trkpt>
      <trkpt lat="45.26906" lon="4.73976">
        <ele>377</ele>
        <time>2020-07-28T05:44:22Z</time>
      </trkpt>
      <trkpt lat="45.26935" lon="4.73975">
        <ele>378</ele>
        <time>2020-07-28T05:44:31Z</time>
      </trkpt>
      <trkpt lat="45.26982" lon="4.73953">
        <ele>379</ele>
        <time>2020-07-28T05:44:42Z</time>
      </trkpt>
      <trkpt lat="45.27037" lon="4.73918">
        <ele>382</ele>
        <time>2020-07-28T05:44:56Z</time>
      </trkpt>
      <trkpt lat="45.27061" lon="4.73915">
        <ele>383</ele>
        <time>2020-07-28T05:45:02Z</time>
      </trkpt>
      <trkpt lat="45.27178" lon="4.73935">
        <ele>388</ele>
        <time>2020-07-28T05:45:33Z</time>
      </trkpt>
      <trkpt lat="45.27307" lon="4.73958">
        <ele>391</ele>
        <time>2020-07-28T05:46:03Z</time>
      </trkpt>
      <trkpt lat="45.27453" lon="4.74003">
        <ele>395</ele>
        <time>2020-07-28T05:46:33Z</time>
      </trkpt>
      <trkpt lat="45.27566" lon="4.74034">
        <ele>398</ele>
        <time>2020-07-28T05:46:56Z</time>
      </trkpt>
      <trkpt lat="45.27733" lon="4.73988">
        <ele>398</ele>
        <time>2020-07-28T05:47:26Z</time>
      </trkpt>
      <trkpt lat="45.27849" lon="4.73962">
        <ele>397</ele>
        <time>2020-07-28T05:47:44Z</time>
      </trkpt>
      <trkpt lat="45.28042" lon="4.73941">
        <ele>398</ele>
        <time>2020-07-28T05:48:14Z</time>
      </trkpt>
      <trkpt lat="45.28169" lon="4.73903">
        <ele>399</ele>
        <time>2020-07-28T05:48:35Z</time>
      </trkpt>
      <trkpt lat="45.28262" lon="4.73847">
        <ele>398</ele>
        <time>2020-07-28T05:48:51Z</time>
      </trkpt>
      <trkpt lat="45.28292" lon="4.73809">
        <ele>397</ele>
        <time>2020-07-28T05:48:56Z</time>
      </trkpt>
      <trkpt lat="45.28438" lon="4.73596">
        <ele>393</ele>
        <time>2020-07-28T05:49:26Z</time>
      </trkpt>
      <trkpt lat="45.28552" lon="4.73343">
        <ele>386</ele>
        <time>2020-07-28T05:49:56Z</time>
      </trkpt>
      <trkpt lat="45.28573" lon="4.73263">
        <ele>382</ele>
        <time>2020-07-28T05:50:03Z</time>
      </trkpt>
      <trkpt lat="45.28639" lon="4.73139">
        <ele>383</ele>
        <time>2020-07-28T05:50:20Z</time>
      </trkpt>
      <trkpt lat="45.28657" lon="4.73069">
        <ele>383</ele>
        <time>2020-07-28T05:50:27Z</time>
      </trkpt>
      <trkpt lat="45.28659" lon="4.73032">
        <ele>384</ele>
        <time>2020-07-28T05:50:32Z</time>
      </trkpt>
      <trkpt lat="45.28658" lon="4.7301">
        <ele>384</ele>
        <time>2020-07-28T05:50:35Z</time>
      </trkpt>
      <trkpt lat="45.28661" lon="4.72992">
        <ele>384</ele>
        <time>2020-07-28T05:50:38Z</time>
      </trkpt>
      <trkpt lat="45.28666" lon="4.72979">
        <ele>384</ele>
        <time>2020-07-28T05:50:42Z</time>
      </trkpt>
      <trkpt lat="45.28673" lon="4.72968">
        <ele>384</ele>
        <time>2020-07-28T05:50:46Z</time>
      </trkpt>
      <trkpt lat="45.28682" lon="4.72948">
        <ele>384</ele>
        <time>2020-07-28T05:50:52Z</time>
      </trkpt>
      <trkpt lat="45.28685" lon="4.72939">
        <ele>384</ele>
        <time>2020-07-28T05:50:54Z</time>
      </trkpt>
      <trkpt lat="45.28685" lon="4.72916">
        <ele>384</ele>
        <time>2020-07-28T05:50:58Z</time>
      </trkpt>
      <trkpt lat="45.28679" lon="4.72888">
        <ele>384</ele>
        <time>2020-07-28T05:51:03Z</time>
      </trkpt>
      <trkpt lat="45.2868" lon="4.72875">
        <ele>383</ele>
        <time>2020-07-28T05:51:05Z</time>
      </trkpt>
      <trkpt lat="45.28688" lon="4.72857">
        <ele>382</ele>
        <time>2020-07-28T05:51:09Z</time>
      </trkpt>
      <trkpt lat="45.28691" lon="4.72854">
        <ele>382</ele>
        <time>2020-07-28T05:51:11Z</time>
      </trkpt>
      <trkpt lat="45.28812" lon="4.7294">
        <ele>379</ele>
        <time>2020-07-28T05:51:38Z</time>
      </trkpt>
      <trkpt lat="45.28819" lon="4.72949">
        <ele>379</ele>
        <time>2020-07-28T05:51:40Z</time>
      </trkpt>
      <trkpt lat="45.28823" lon="4.72952">
        <ele>379</ele>
        <time>2020-07-28T05:51:41Z</time>
      </trkpt>
      <trkpt lat="45.28827" lon="4.72952">
        <ele>379</ele>
        <time>2020-07-28T05:51:42Z</time>
      </trkpt>
      <trkpt lat="45.28831" lon="4.72949">
        <ele>379</ele>
        <time>2020-07-28T05:51:43Z</time>
      </trkpt>
      <trkpt lat="45.28864" lon="4.7292">
        <ele>381</ele>
        <time>2020-07-28T05:51:54Z</time>
      </trkpt>
      <trkpt lat="45.28889" lon="4.72911">
        <ele>383</ele>
        <time>2020-07-28T05:52:02Z</time>
      </trkpt>
      <trkpt lat="45.29" lon="4.72891">
        <ele>386</ele>
        <time>2020-07-28T05:52:32Z</time>
      </trkpt>
      <trkpt lat="45.29024" lon="4.7288">
        <ele>387</ele>
        <time>2020-07-28T05:52:38Z</time>
      </trkpt>
      <trkpt lat="45.29039" lon="4.72871">
        <ele>388</ele>
        <time>2020-07-28T05:52:42Z</time>
      </trkpt>
      <trkpt lat="45.29065" lon="4.72864">
        <ele>389</ele>
        <time>2020-07-28T05:52:49Z</time>
      </trkpt>
      <trkpt lat="45.2909" lon="4.72867">
        <ele>390</ele>
        <time>2020-07-28T05:52:55Z</time>
      </trkpt>
      <trkpt lat="45.29204" lon="4.72924">
        <ele>394</ele>
        <time>2020-07-28T05:53:25Z</time>
      </trkpt>
      <trkpt lat="45.29307" lon="4.72977">
        <ele>400</ele>
        <time>2020-07-28T05:53:55Z</time>
      </trkpt>
      <trkpt lat="45.29397" lon="4.73021">
        <ele>401</ele>
        <time>2020-07-28T05:54:19Z</time>
      </trkpt>
      <trkpt lat="45.29438" lon="4.73022">
        <ele>401</ele>
        <time>2020-07-28T05:54:27Z</time>
      </trkpt>
      <trkpt lat="45.29582" lon="4.72997">
        <ele>403</ele>
        <time>2020-07-28T05:54:57Z</time>
      </trkpt>
      <trkpt lat="45.29631" lon="4.72982">
        <ele>405</ele>
        <time>2020-07-28T05:55:09Z</time>
      </trkpt>
      <trkpt lat="45.29722" lon="4.72911">
        <ele>408</ele>
        <time>2020-07-28T05:55:33Z</time>
      </trkpt>
      <trkpt lat="45.298" lon="4.7285">
        <ele>407</ele>
        <time>2020-07-28T05:55:50Z</time>
      </trkpt>
      <trkpt lat="45.29856" lon="4.7283">
        <ele>407</ele>
        <time>2020-07-28T05:56:00Z</time>
      </trkpt>
      <trkpt lat="45.29896" lon="4.72817">
        <ele>406</ele>
        <time>2020-07-28T05:56:07Z</time>
      </trkpt>
      <trkpt lat="45.29975" lon="4.72777">
        <ele>406</ele>
        <time>2020-07-28T05:56:22Z</time>
      </trkpt>
      <trkpt lat="45.29985" lon="4.72776">
        <ele>406</ele>
        <time>2020-07-28T05:56:24Z</time>
      </trkpt>
      <trkpt lat="45.29995" lon="4.7278">
        <ele>406</ele>
        <time>2020-07-28T05:56:26Z</time>
      </trkpt>
      <trkpt lat="45.30011" lon="4.72794">
        <ele>404</ele>
        <time>2020-07-28T05:56:29Z</time>
      </trkpt>
      <trkpt lat="45.3008" lon="4.72855">
        <ele>399</ele>
        <time>2020-07-28T05:56:39Z</time>
      </trkpt>
      <trkpt lat="45.30196" lon="4.72918">
        <ele>393</ele>
        <time>2020-07-28T05:56:52Z</time>
      </trkpt>
      <trkpt lat="45.30363" lon="4.72947">
        <ele>389</ele>
        <time>2020-07-28T05:57:12Z</time>
      </trkpt>
      <trkpt lat="45.305" lon="4.73038">
        <ele>384</ele>
        <time>2020-07-28T05:57:30Z</time>
      </trkpt>
      <trkpt lat="45.30588" lon="4.73152">
        <ele>378</ele>
        <time>2020-07-28T05:57:45Z</time>
      </trkpt>
      <trkpt lat="45.30592" lon="4.73155">
        <ele>378</ele>
        <time>2020-07-28T05:57:46Z</time>
      </trkpt>
      <trkpt lat="45.30597" lon="4.73154">
        <ele>378</ele>
        <time>2020-07-28T05:57:47Z</time>
      </trkpt>
      <trkpt lat="45.306" lon="4.73151">
        <ele>378</ele>
        <time>2020-07-28T05:57:48Z</time>
      </trkpt>
      <trkpt lat="45.30608" lon="4.73133">
        <ele>378</ele>
        <time>2020-07-28T05:57:51Z</time>
      </trkpt>
      <trkpt lat="45.30678" lon="4.72918">
        <ele>378</ele>
        <time>2020-07-28T05:58:21Z</time>
      </trkpt>
      <trkpt lat="45.30686" lon="4.72898">
        <ele>378</ele>
        <time>2020-07-28T05:58:24Z</time>
      </trkpt>
      <trkpt lat="45.30695" lon="4.72887">
        <ele>378</ele>
        <time>2020-07-28T05:58:26Z</time>
      </trkpt>
      <trkpt lat="45.30706" lon="4.7288">
        <ele>378</ele>
        <time>2020-07-28T05:58:28Z</time>
      </trkpt>
      <trkpt lat="45.30718" lon="4.72878">
        <ele>378</ele>
        <time>2020-07-28T05:58:30Z</time>
      </trkpt>
      <trkpt lat="45.30731" lon="4.72879">
        <ele>378</ele>
        <time>2020-07-28T05:58:32Z</time>
      </trkpt>
      <trkpt lat="45.30741" lon="4.72886">
        <ele>378</ele>
        <time>2020-07-28T05:58:34Z</time>
      </trkpt>
      <trkpt lat="45.30756" lon="4.72905">
        <ele>379</ele>
        <time>2020-07-28T05:58:38Z</time>
      </trkpt>
      <trkpt lat="45.30766" lon="4.72921">
        <ele>380</ele>
        <time>2020-07-28T05:58:41Z</time>
      </trkpt>
      <trkpt lat="45.30784" lon="4.7294">
        <ele>382</ele>
        <time>2020-07-28T05:58:46Z</time>
      </trkpt>
      <trkpt lat="45.30793" lon="4.72945">
        <ele>382</ele>
        <time>2020-07-28T05:58:48Z</time>
      </trkpt>
      <trkpt lat="45.30807" lon="4.72947">
        <ele>383</ele>
        <time>2020-07-28T05:58:51Z</time>
      </trkpt>
      <trkpt lat="45.30933" lon="4.7294">
        <ele>383</ele>
        <time>2020-07-28T05:59:16Z</time>
      </trkpt>
      <trkpt lat="45.3097" lon="4.72914">
        <ele>384</ele>
        <time>2020-07-28T05:59:24Z</time>
      </trkpt>
      <trkpt lat="45.30991" lon="4.72893">
        <ele>384</ele>
        <time>2020-07-28T05:59:29Z</time>
      </trkpt>
      <trkpt lat="45.31073" lon="4.7277">
        <ele>387</ele>
        <time>2020-07-28T05:59:55Z</time>
      </trkpt>
      <trkpt lat="45.31084" lon="4.72763">
        <ele>388</ele>
        <time>2020-07-28T05:59:58Z</time>
      </trkpt>
      <trkpt lat="45.31096" lon="4.72761">
        <ele>388</ele>
        <time>2020-07-28T06:00:01Z</time>
      </trkpt>
      <trkpt lat="45.31227" lon="4.72781">
        <ele>392</ele>
        <time>2020-07-28T06:00:31Z</time>
      </trkpt>
      <trkpt lat="45.31371" lon="4.728">
        <ele>392</ele>
        <time>2020-07-28T06:01:01Z</time>
      </trkpt>
      <trkpt lat="45.31501" lon="4.72812">
        <ele>397</ele>
        <time>2020-07-28T06:01:31Z</time>
      </trkpt>
      <trkpt lat="45.31533" lon="4.72815">
        <ele>398</ele>
        <time>2020-07-28T06:01:40Z</time>
      </trkpt>
      <trkpt lat="45.31585" lon="4.72828">
        <ele>400</ele>
        <time>2020-07-28T06:01:55Z</time>
      </trkpt>
      <trkpt lat="45.31636" lon="4.72829">
        <ele>403</ele>
        <time>2020-07-28T06:02:11Z</time>
      </trkpt>
      <trkpt lat="45.31645" lon="4.72833">
        <ele>403</ele>
        <time>2020-07-28T06:02:16Z</time>
      </trkpt>
      <trkpt lat="45.3165" lon="4.72833">
        <ele>403</ele>
        <time>2020-07-28T06:02:30Z</time>
      </trkpt>
      <trkpt lat="45.31654" lon="4.72831">
        <ele>403</ele>
        <time>2020-07-28T06:02:32Z</time>
      </trkpt>
      <trkpt lat="45.31706" lon="4.72744">
        <ele>408</ele>
        <time>2020-07-28T06:03:02Z</time>
      </trkpt>
      <trkpt lat="45.31722" lon="4.72716">
        <ele>409</ele>
        <time>2020-07-28T06:03:10Z</time>
      </trkpt>
      <trkpt lat="45.31728" lon="4.727">
        <ele>410</ele>
        <time>2020-07-28T06:03:14Z</time>
      </trkpt>
      <trkpt lat="45.31733" lon="4.72657">
        <ele>412</ele>
        <time>2020-07-28T06:03:24Z</time>
      </trkpt>
      <trkpt lat="45.31734" lon="4.72519">
        <ele>416</ele>
        <time>2020-07-28T06:03:54Z</time>
      </trkpt>
      <trkpt lat="45.3174" lon="4.72383">
        <ele>421</ele>
        <time>2020-07-28T06:04:25Z</time>
      </trkpt>
      <trkpt lat="45.31754" lon="4.72297">
        <ele>425</ele>
        <time>2020-07-28T06:04:45Z</time>
      </trkpt>
      <trkpt lat="45.31757" lon="4.7228">
        <ele>425</ele>
        <time>2020-07-28T06:04:49Z</time>
      </trkpt>
      <trkpt lat="45.31774" lon="4.72174">
        <ele>429</ele>
        <time>2020-07-28T06:05:13Z</time>
      </trkpt>
      <trkpt lat="45.31782" lon="4.72148">
        <ele>430</ele>
        <time>2020-07-28T06:05:19Z</time>
      </trkpt>
      <trkpt lat="45.31795" lon="4.72129">
        <ele>431</ele>
        <time>2020-07-28T06:05:25Z</time>
      </trkpt>
      <trkpt lat="45.31838" lon="4.72095">
        <ele>434</ele>
        <time>2020-07-28T06:05:41Z</time>
      </trkpt>
      <trkpt lat="45.31845" lon="4.7208">
        <ele>435</ele>
        <time>2020-07-28T06:05:45Z</time>
      </trkpt>
      <trkpt lat="45.31848" lon="4.72062">
        <ele>436</ele>
        <time>2020-07-28T06:05:49Z</time>
      </trkpt>
      <trkpt lat="45.31852" lon="4.71923">
        <ele>440</ele>
        <time>2020-07-28T06:06:19Z</time>
      </trkpt>
      <trkpt lat="45.31854" lon="4.71787">
        <ele>445</ele>
        <time>2020-07-28T06:06:49Z</time>
      </trkpt>
      <trkpt lat="45.31852" lon="4.71765">
        <ele>446</ele>
        <time>2020-07-28T06:06:54Z</time>
      </trkpt>
      <trkpt lat="45.31847" lon="4.71742">
        <ele>447</ele>
        <time>2020-07-28T06:06:59Z</time>
      </trkpt>
      <trkpt lat="45.31806" lon="4.71616">
        <ele>451</ele>
        <time>2020-07-28T06:07:29Z</time>
      </trkpt>
      <trkpt lat="45.31798" lon="4.71585">
        <ele>452</ele>
        <time>2020-07-28T06:07:36Z</time>
      </trkpt>
      <trkpt lat="45.31797" lon="4.71566">
        <ele>453</ele>
        <time>2020-07-28T06:07:40Z</time>
      </trkpt>
      <trkpt lat="45.3181" lon="4.71438">
        <ele>458</ele>
        <time>2020-07-28T06:08:08Z</time>
      </trkpt>
      <trkpt lat="45.31789" lon="4.7131">
        <ele>462</ele>
        <time>2020-07-28T06:08:37Z</time>
      </trkpt>
      <trkpt lat="45.3178" lon="4.71286">
        <ele>463</ele>
        <time>2020-07-28T06:08:43Z</time>
      </trkpt>
      <trkpt lat="45.31759" lon="4.71252">
        <ele>465</ele>
        <time>2020-07-28T06:08:53Z</time>
      </trkpt>
      <trkpt lat="45.31734" lon="4.71222">
        <ele>466</ele>
        <time>2020-07-28T06:09:03Z</time>
      </trkpt>
      <trkpt lat="45.31711" lon="4.71207">
        <ele>468</ele>
        <time>2020-07-28T06:09:11Z</time>
      </trkpt>
      <trkpt lat="45.31659" lon="4.71187">
        <ele>470</ele>
        <time>2020-07-28T06:09:28Z</time>
      </trkpt>
      <trkpt lat="45.31653" lon="4.71181">
        <ele>470</ele>
        <time>2020-07-28T06:09:30Z</time>
      </trkpt>
      <trkpt lat="45.31651" lon="4.71178">
        <ele>470</ele>
        <time>2020-07-28T06:09:31Z</time>
      </trkpt>
      <trkpt lat="45.31649" lon="4.71169">
        <ele>470</ele>
        <time>2020-07-28T06:09:33Z</time>
      </trkpt>
      <trkpt lat="45.31648" lon="4.7116">
        <ele>471</ele>
        <time>2020-07-28T06:09:35Z</time>
      </trkpt>
      <trkpt lat="45.3165" lon="4.71147">
        <ele>471</ele>
        <time>2020-07-28T06:09:38Z</time>
      </trkpt>
      <trkpt lat="45.31661" lon="4.71103">
        <ele>473</ele>
        <time>2020-07-28T06:09:48Z</time>
      </trkpt>
      <trkpt lat="45.31663" lon="4.71045">
        <ele>475</ele>
        <time>2020-07-28T06:10:00Z</time>
      </trkpt>
      <trkpt lat="45.31659" lon="4.71012">
        <ele>476</ele>
        <time>2020-07-28T06:10:07Z</time>
      </trkpt>
      <trkpt lat="45.31654" lon="4.70994">
        <ele>477</ele>
        <time>2020-07-28T06:10:11Z</time>
      </trkpt>
      <trkpt lat="45.31635" lon="4.70947">
        <ele>478</ele>
        <time>2020-07-28T06:10:22Z</time>
      </trkpt>
      <trkpt lat="45.31631" lon="4.70908">
        <ele>480</ele>
        <time>2020-07-28T06:10:30Z</time>
      </trkpt>
      <trkpt lat="45.31627" lon="4.70851">
        <ele>482</ele>
        <time>2020-07-28T06:10:42Z</time>
      </trkpt>
      <trkpt lat="45.3162" lon="4.70828">
        <ele>483</ele>
        <time>2020-07-28T06:10:47Z</time>
      </trkpt>
      <trkpt lat="45.31597" lon="4.70783">
        <ele>484</ele>
        <time>2020-07-28T06:10:58Z</time>
      </trkpt>
      <trkpt lat="45.31592" lon="4.70759">
        <ele>484</ele>
        <time>2020-07-28T06:11:03Z</time>
      </trkpt>
      <trkpt lat="45.31584" lon="4.70701">
        <ele>487</ele>
        <time>2020-07-28T06:11:16Z</time>
      </trkpt>
      <trkpt lat="45.31566" lon="4.70644">
        <ele>489</ele>
        <time>2020-07-28T06:11:29Z</time>
      </trkpt>
      <trkpt lat="45.31566" lon="4.70635">
        <ele>490</ele>
        <time>2020-07-28T06:11:31Z</time>
      </trkpt>
      <trkpt lat="45.31568" lon="4.70617">
        <ele>490</ele>
        <time>2020-07-28T06:11:35Z</time>
      </trkpt>
      <trkpt lat="45.31573" lon="4.70584">
        <ele>491</ele>
        <time>2020-07-28T06:11:42Z</time>
      </trkpt>
      <trkpt lat="45.31572" lon="4.70565">
        <ele>492</ele>
        <time>2020-07-28T06:11:46Z</time>
      </trkpt>
      <trkpt lat="45.31552" lon="4.70464">
        <ele>494</ele>
        <time>2020-07-28T06:12:08Z</time>
      </trkpt>
      <trkpt lat="45.31552" lon="4.70454">
        <ele>495</ele>
        <time>2020-07-28T06:12:10Z</time>
      </trkpt>
      <trkpt lat="45.31562" lon="4.70381">
        <ele>499</ele>
        <time>2020-07-28T06:12:25Z</time>
      </trkpt>
      <trkpt lat="45.31552" lon="4.70293">
        <ele>503</ele>
        <time>2020-07-28T06:12:43Z</time>
      </trkpt>
      <trkpt lat="45.31535" lon="4.70229">
        <ele>504</ele>
        <time>2020-07-28T06:12:57Z</time>
      </trkpt>
      <trkpt lat="45.31481" lon="4.70105">
        <ele>510</ele>
        <time>2020-07-28T06:13:27Z</time>
      </trkpt>
      <trkpt lat="45.31464" lon="4.70067">
        <ele>511</ele>
        <time>2020-07-28T06:13:36Z</time>
      </trkpt>
      <trkpt lat="45.31455" lon="4.70059">
        <ele>512</ele>
        <time>2020-07-28T06:13:39Z</time>
      </trkpt>
      <trkpt lat="45.31448" lon="4.70055">
        <ele>512</ele>
        <time>2020-07-28T06:13:41Z</time>
      </trkpt>
      <trkpt lat="45.31441" lon="4.70055">
        <ele>512</ele>
        <time>2020-07-28T06:13:43Z</time>
      </trkpt>
      <trkpt lat="45.31365" lon="4.70063">
        <ele>516</ele>
        <time>2020-07-28T06:14:05Z</time>
      </trkpt>
      <trkpt lat="45.31355" lon="4.7006">
        <ele>517</ele>
        <time>2020-07-28T06:14:08Z</time>
      </trkpt>
      <trkpt lat="45.31349" lon="4.70054">
        <ele>517</ele>
        <time>2020-07-28T06:14:10Z</time>
      </trkpt>
      <trkpt lat="45.31344" lon="4.70047">
        <ele>518</ele>
        <time>2020-07-28T06:14:12Z</time>
      </trkpt>
      <trkpt lat="45.31314" lon="4.69963">
        <ele>521</ele>
        <time>2020-07-28T06:14:28Z</time>
      </trkpt>
      <trkpt lat="45.31309" lon="4.69954">
        <ele>521</ele>
        <time>2020-07-28T06:14:30Z</time>
      </trkpt>
      <trkpt lat="45.31282" lon="4.69924">
        <ele>523</ele>
        <time>2020-07-28T06:14:38Z</time>
      </trkpt>
      <trkpt lat="45.31237" lon="4.69832">
        <ele>526</ele>
        <time>2020-07-28T06:14:57Z</time>
      </trkpt>
      <trkpt lat="45.31153" lon="4.69742">
        <ele>531</ele>
        <time>2020-07-28T06:15:23Z</time>
      </trkpt>
      <trkpt lat="45.31111" lon="4.69712">
        <ele>533</ele>
        <time>2020-07-28T06:15:35Z</time>
      </trkpt>
      <trkpt lat="45.31044" lon="4.69605">
        <ele>539</ele>
        <time>2020-07-28T06:16:01Z</time>
      </trkpt>
      <trkpt lat="45.31036" lon="4.69588">
        <ele>540</ele>
        <time>2020-07-28T06:16:05Z</time>
      </trkpt>
      <trkpt lat="45.31035" lon="4.69578">
        <ele>540</ele>
        <time>2020-07-28T06:16:07Z</time>
      </trkpt>
      <trkpt lat="45.31036" lon="4.69572">
        <ele>540</ele>
        <time>2020-07-28T06:16:08Z</time>
      </trkpt>
      <trkpt lat="45.31047" lon="4.69536">
        <ele>542</ele>
        <time>2020-07-28T06:16:16Z</time>
      </trkpt>
      <trkpt lat="45.31048" lon="4.6952">
        <ele>542</ele>
        <time>2020-07-28T06:16:19Z</time>
      </trkpt>
      <trkpt lat="45.31045" lon="4.69501">
        <ele>543</ele>
        <time>2020-07-28T06:16:23Z</time>
      </trkpt>
      <trkpt lat="45.31034" lon="4.69465">
        <ele>544</ele>
        <time>2020-07-28T06:16:31Z</time>
      </trkpt>
      <trkpt lat="45.30995" lon="4.69399">
        <ele>547</ele>
        <time>2020-07-28T06:16:48Z</time>
      </trkpt>
      <trkpt lat="45.30976" lon="4.69335">
        <ele>550</ele>
        <time>2020-07-28T06:17:02Z</time>
      </trkpt>
      <trkpt lat="45.30961" lon="4.69306">
        <ele>552</ele>
        <time>2020-07-28T06:17:09Z</time>
      </trkpt>
      <trkpt lat="45.30936" lon="4.69276">
        <ele>554</ele>
        <time>2020-07-28T06:17:18Z</time>
      </trkpt>
      <trkpt lat="45.3086" lon="4.69211">
        <ele>557</ele>
        <time>2020-07-28T06:17:42Z</time>
      </trkpt>
      <trkpt lat="45.30852" lon="4.69199">
        <ele>558</ele>
        <time>2020-07-28T06:17:45Z</time>
      </trkpt>
      <trkpt lat="45.30847" lon="4.69183">
        <ele>558</ele>
        <time>2020-07-28T06:17:48Z</time>
      </trkpt>
      <trkpt lat="45.30846" lon="4.69157">
        <ele>559</ele>
        <time>2020-07-28T06:17:53Z</time>
      </trkpt>
      <trkpt lat="45.30851" lon="4.691">
        <ele>560</ele>
        <time>2020-07-28T06:18:04Z</time>
      </trkpt>
      <trkpt lat="45.30853" lon="4.69092">
        <ele>561</ele>
        <time>2020-07-28T06:18:06Z</time>
      </trkpt>
      <trkpt lat="45.30859" lon="4.69087">
        <ele>562</ele>
        <time>2020-07-28T06:18:08Z</time>
      </trkpt>
      <trkpt lat="45.30866" lon="4.69082">
        <ele>563</ele>
        <time>2020-07-28T06:18:10Z</time>
      </trkpt>
      <trkpt lat="45.30933" lon="4.69069">
        <ele>567</ele>
        <time>2020-07-28T06:18:26Z</time>
      </trkpt>
      <trkpt lat="45.30952" lon="4.69059">
        <ele>568</ele>
        <time>2020-07-28T06:18:31Z</time>
      </trkpt>
      <trkpt lat="45.30971" lon="4.69041">
        <ele>569</ele>
        <time>2020-07-28T06:18:37Z</time>
      </trkpt>
      <trkpt lat="45.30984" lon="4.69021">
        <ele>570</ele>
        <time>2020-07-28T06:18:42Z</time>
      </trkpt>
      <trkpt lat="45.30989" lon="4.69007">
        <ele>570</ele>
        <time>2020-07-28T06:18:45Z</time>
      </trkpt>
      <trkpt lat="45.30996" lon="4.68976">
        <ele>571</ele>
        <time>2020-07-28T06:18:51Z</time>
      </trkpt>
      <trkpt lat="45.30995" lon="4.68959">
        <ele>571</ele>
        <time>2020-07-28T06:18:54Z</time>
      </trkpt>
      <trkpt lat="45.30991" lon="4.68943">
        <ele>572</ele>
        <time>2020-07-28T06:18:57Z</time>
      </trkpt>
      <trkpt lat="45.30953" lon="4.68829">
        <ele>577</ele>
        <time>2020-07-28T06:19:20Z</time>
      </trkpt>
      <trkpt lat="45.30951" lon="4.68807">
        <ele>577</ele>
        <time>2020-07-28T06:19:24Z</time>
      </trkpt>
      <trkpt lat="45.30953" lon="4.68738">
        <ele>580</ele>
        <time>2020-07-28T06:19:36Z</time>
      </trkpt>
      <trkpt lat="45.30949" lon="4.68718">
        <ele>581</ele>
        <time>2020-07-28T06:19:40Z</time>
      </trkpt>
      <trkpt lat="45.30911" lon="4.68615">
        <ele>585</ele>
        <time>2020-07-28T06:20:01Z</time>
      </trkpt>
      <trkpt lat="45.30912" lon="4.68571">
        <ele>586</ele>
        <time>2020-07-28T06:20:09Z</time>
      </trkpt>
      <trkpt lat="45.30923" lon="4.68494">
        <ele>589</ele>
        <time>2020-07-28T06:20:23Z</time>
      </trkpt>
      <trkpt lat="45.30917" lon="4.68439">
        <ele>591</ele>
        <time>2020-07-28T06:20:33Z</time>
      </trkpt>
      <trkpt lat="45.30919" lon="4.68422">
        <ele>591</ele>
        <time>2020-07-28T06:20:36Z</time>
      </trkpt>
      <trkpt lat="45.30935" lon="4.68366">
        <ele>594</ele>
        <time>2020-07-28T06:20:47Z</time>
      </trkpt>
      <trkpt lat="45.30934" lon="4.68355">
        <ele>594</ele>
        <time>2020-07-28T06:20:49Z</time>
      </trkpt>
      <trkpt lat="45.30929" lon="4.68335">
        <ele>595</ele>
        <time>2020-07-28T06:20:53Z</time>
      </trkpt>
      <trkpt lat="45.30892" lon="4.68264">
        <ele>597</ele>
        <time>2020-07-28T06:21:09Z</time>
      </trkpt>
      <trkpt lat="45.30863" lon="4.68228">
        <ele>599</ele>
        <time>2020-07-28T06:21:19Z</time>
      </trkpt>
      <trkpt lat="45.30859" lon="4.68219">
        <ele>600</ele>
        <time>2020-07-28T06:21:21Z</time>
      </trkpt>
      <trkpt lat="45.30857" lon="4.68215">
        <ele>600</ele>
        <time>2020-07-28T06:21:22Z</time>
      </trkpt>
      <trkpt lat="45.30857" lon="4.68205">
        <ele>600</ele>
        <time>2020-07-28T06:21:24Z</time>
      </trkpt>
      <trkpt lat="45.30865" lon="4.68173">
        <ele>600</ele>
        <time>2020-07-28T06:21:30Z</time>
      </trkpt>
      <trkpt lat="45.30865" lon="4.68161">
        <ele>600</ele>
        <time>2020-07-28T06:21:32Z</time>
      </trkpt>
      <trkpt lat="45.30861" lon="4.68139">
        <ele>601</ele>
        <time>2020-07-28T06:21:36Z</time>
      </trkpt>
      <trkpt lat="45.30826" lon="4.68019">
        <ele>605</ele>
        <time>2020-07-28T06:22:00Z</time>
      </trkpt>
      <trkpt lat="45.30825" lon="4.67999">
        <ele>606</ele>
        <time>2020-07-28T06:22:04Z</time>
      </trkpt>
      <trkpt lat="45.30827" lon="4.67971">
        <ele>606</ele>
        <time>2020-07-28T06:22:11Z</time>
      </trkpt>
      <trkpt lat="45.30826" lon="4.67968">
        <ele>607</ele>
        <time>2020-07-28T06:22:12Z</time>
      </trkpt>
      <trkpt lat="45.30824" lon="4.67966">
        <ele>607</ele>
        <time>2020-07-28T06:22:13Z</time>
      </trkpt>
      <trkpt lat="45.30822" lon="4.67966">
        <ele>607</ele>
        <time>2020-07-28T06:22:14Z</time>
      </trkpt>
      <trkpt lat="45.3082" lon="4.67968">
        <ele>607</ele>
        <time>2020-07-28T06:22:15Z</time>
      </trkpt>
      <trkpt lat="45.30819" lon="4.67971">
        <ele>607</ele>
        <time>2020-07-28T06:22:16Z</time>
      </trkpt>
      <trkpt lat="45.30819" lon="4.67977">
        <ele>607</ele>
        <time>2020-07-28T06:22:18Z</time>
      </trkpt>
      <trkpt lat="45.30819" lon="4.67981">
        <ele>607</ele>
        <time>2020-07-28T06:22:20Z</time>
      </trkpt>
      <trkpt lat="45.30821" lon="4.67984">
        <ele>607</ele>
        <time>2020-07-28T06:22:42Z</time>
      </trkpt>
      <trkpt lat="45.30822" lon="4.67985">
        <ele>606</ele>
        <time>2020-07-28T06:23:09Z</time>
      </trkpt>
      <trkpt lat="45.30827" lon="4.6798">
        <ele>607</ele>
        <time>2020-07-28T06:24:11Z</time>
      </trkpt>
      <trkpt lat="45.30833" lon="4.67969">
        <ele>606</ele>
        <time>2020-07-28T06:24:15Z</time>
      </trkpt>
      <trkpt lat="45.30864" lon="4.67922">
        <ele>607</ele>
        <time>2020-07-28T06:24:27Z</time>
      </trkpt>
      <trkpt lat="45.30893" lon="4.67846">
        <ele>609</ele>
        <time>2020-07-28T06:24:41Z</time>
      </trkpt>
      <trkpt lat="45.30944" lon="4.67669">
        <ele>613</ele>
        <time>2020-07-28T06:25:11Z</time>
      </trkpt>
      <trkpt lat="45.30949" lon="4.67645">
        <ele>613</ele>
        <time>2020-07-28T06:25:15Z</time>
      </trkpt>
      <trkpt lat="45.30949" lon="4.67638">
        <ele>613</ele>
        <time>2020-07-28T06:25:16Z</time>
      </trkpt>
      <trkpt lat="45.30946" lon="4.67625">
        <ele>613</ele>
        <time>2020-07-28T06:25:18Z</time>
      </trkpt>
      <trkpt lat="45.30941" lon="4.67614">
        <ele>614</ele>
        <time>2020-07-28T06:25:20Z</time>
      </trkpt>
      <trkpt lat="45.30937" lon="4.6761">
        <ele>614</ele>
        <time>2020-07-28T06:25:21Z</time>
      </trkpt>
      <trkpt lat="45.3093" lon="4.67604">
        <ele>614</ele>
        <time>2020-07-28T06:25:23Z</time>
      </trkpt>
      <trkpt lat="45.30925" lon="4.67603">
        <ele>613</ele>
        <time>2020-07-28T06:25:24Z</time>
      </trkpt>
      <trkpt lat="45.30891" lon="4.67614">
        <ele>613</ele>
        <time>2020-07-28T06:25:31Z</time>
      </trkpt>
      <trkpt lat="45.30881" lon="4.67612">
        <ele>613</ele>
        <time>2020-07-28T06:25:33Z</time>
      </trkpt>
      <trkpt lat="45.30876" lon="4.6761">
        <ele>614</ele>
        <time>2020-07-28T06:25:34Z</time>
      </trkpt>
      <trkpt lat="45.30861" lon="4.6759">
        <ele>614</ele>
        <time>2020-07-28T06:25:38Z</time>
      </trkpt>
      <trkpt lat="45.30807" lon="4.67492">
        <ele>615</ele>
        <time>2020-07-28T06:25:54Z</time>
      </trkpt>
      <trkpt lat="45.30677" lon="4.67329">
        <ele>615</ele>
        <time>2020-07-28T06:26:24Z</time>
      </trkpt>
      <trkpt lat="45.30659" lon="4.67296">
        <ele>615</ele>
        <time>2020-07-28T06:26:29Z</time>
      </trkpt>
      <trkpt lat="45.30637" lon="4.67229">
        <ele>615</ele>
        <time>2020-07-28T06:26:38Z</time>
      </trkpt>
      <trkpt lat="45.30636" lon="4.67213">
        <ele>615</ele>
        <time>2020-07-28T06:26:40Z</time>
      </trkpt>
      <trkpt lat="45.30637" lon="4.67197">
        <ele>615</ele>
        <time>2020-07-28T06:26:42Z</time>
      </trkpt>
      <trkpt lat="45.30642" lon="4.67182">
        <ele>615</ele>
        <time>2020-07-28T06:26:44Z</time>
      </trkpt>
      <trkpt lat="45.30663" lon="4.6714">
        <ele>615</ele>
        <time>2020-07-28T06:26:50Z</time>
      </trkpt>
      <trkpt lat="45.30667" lon="4.67123">
        <ele>615</ele>
        <time>2020-07-28T06:26:52Z</time>
      </trkpt>
      <trkpt lat="45.30667" lon="4.67097">
        <ele>615</ele>
        <time>2020-07-28T06:26:55Z</time>
      </trkpt>
      <trkpt lat="45.30656" lon="4.67003">
        <ele>615</ele>
        <time>2020-07-28T06:27:06Z</time>
      </trkpt>
      <trkpt lat="45.30578" lon="4.66761">
        <ele>616</ele>
        <time>2020-07-28T06:27:36Z</time>
      </trkpt>
      <trkpt lat="45.30558" lon="4.66643">
        <ele>616</ele>
        <time>2020-07-28T06:27:50Z</time>
      </trkpt>
      <trkpt lat="45.30498" lon="4.66481">
        <ele>616</ele>
        <time>2020-07-28T06:28:11Z</time>
      </trkpt>
      <trkpt lat="45.30496" lon="4.66464">
        <ele>615</ele>
        <time>2020-07-28T06:28:13Z</time>
      </trkpt>
      <trkpt lat="45.30499" lon="4.66445">
        <ele>615</ele>
        <time>2020-07-28T06:28:15Z</time>
      </trkpt>
      <trkpt lat="45.30505" lon="4.66427">
        <ele>614</ele>
        <time>2020-07-28T06:28:17Z</time>
      </trkpt>
      <trkpt lat="45.3055" lon="4.6635">
        <ele>611</ele>
        <time>2020-07-28T06:28:26Z</time>
      </trkpt>
      <trkpt lat="45.30564" lon="4.66335">
        <ele>611</ele>
        <time>2020-07-28T06:28:28Z</time>
      </trkpt>
      <trkpt lat="45.3058" lon="4.66326">
        <ele>610</ele>
        <time>2020-07-28T06:28:30Z</time>
      </trkpt>
      <trkpt lat="45.30608" lon="4.66321">
        <ele>608</ele>
        <time>2020-07-28T06:28:33Z</time>
      </trkpt>
      <trkpt lat="45.3068" lon="4.66343">
        <ele>605</ele>
        <time>2020-07-28T06:28:41Z</time>
      </trkpt>
      <trkpt lat="45.30688" lon="4.6634">
        <ele>604</ele>
        <time>2020-07-28T06:28:42Z</time>
      </trkpt>
      <trkpt lat="45.30695" lon="4.66335">
        <ele>604</ele>
        <time>2020-07-28T06:28:43Z</time>
      </trkpt>
      <trkpt lat="45.307" lon="4.66327">
        <ele>603</ele>
        <time>2020-07-28T06:28:44Z</time>
      </trkpt>
      <trkpt lat="45.30704" lon="4.66317">
        <ele>603</ele>
        <time>2020-07-28T06:28:45Z</time>
      </trkpt>
      <trkpt lat="45.30705" lon="4.66306">
        <ele>603</ele>
        <time>2020-07-28T06:28:46Z</time>
      </trkpt>
      <trkpt lat="45.30704" lon="4.66294">
        <ele>602</ele>
        <time>2020-07-28T06:28:47Z</time>
      </trkpt>
      <trkpt lat="45.307" lon="4.66284">
        <ele>602</ele>
        <time>2020-07-28T06:28:48Z</time>
      </trkpt>
      <trkpt lat="45.30687" lon="4.66267">
        <ele>602</ele>
        <time>2020-07-28T06:28:50Z</time>
      </trkpt>
      <trkpt lat="45.30552" lon="4.66135">
        <ele>598</ele>
        <time>2020-07-28T06:29:08Z</time>
      </trkpt>
      <trkpt lat="45.30539" lon="4.66107">
        <ele>598</ele>
        <time>2020-07-28T06:29:11Z</time>
      </trkpt>
      <trkpt lat="45.30532" lon="4.66086">
        <ele>597</ele>
        <time>2020-07-28T06:29:13Z</time>
      </trkpt>
      <trkpt lat="45.3053" lon="4.66063">
        <ele>597</ele>
        <time>2020-07-28T06:29:15Z</time>
      </trkpt>
      <trkpt lat="45.30532" lon="4.66028">
        <ele>596</ele>
        <time>2020-07-28T06:29:18Z</time>
      </trkpt>
      <trkpt lat="45.30543" lon="4.65972">
        <ele>596</ele>
        <time>2020-07-28T06:29:23Z</time>
      </trkpt>
      <trkpt lat="45.30551" lon="4.65953">
        <ele>596</ele>
        <time>2020-07-28T06:29:25Z</time>
      </trkpt>
      <trkpt lat="45.30598" lon="4.65892">
        <ele>594</ele>
        <time>2020-07-28T06:29:33Z</time>
      </trkpt>
      <trkpt lat="45.30604" lon="4.6587">
        <ele>593</ele>
        <time>2020-07-28T06:29:35Z</time>
      </trkpt>
      <trkpt lat="45.30605" lon="4.65859">
        <ele>593</ele>
        <time>2020-07-28T06:29:36Z</time>
      </trkpt>
      <trkpt lat="45.306" lon="4.65826">
        <ele>592</ele>
        <time>2020-07-28T06:29:39Z</time>
      </trkpt>
      <trkpt lat="45.30583" lon="4.65736">
        <ele>590</ele>
        <time>2020-07-28T06:29:47Z</time>
      </trkpt>
      <trkpt lat="45.30582" lon="4.65712">
        <ele>590</ele>
        <time>2020-07-28T06:29:49Z</time>
      </trkpt>
      <trkpt lat="45.30599" lon="4.65585">
        <ele>588</ele>
        <time>2020-07-28T06:30:00Z</time>
      </trkpt>
      <trkpt lat="45.30609" lon="4.65553">
        <ele>587</ele>
        <time>2020-07-28T06:30:03Z</time>
      </trkpt>
      <trkpt lat="45.3062" lon="4.65534">
        <ele>587</ele>
        <time>2020-07-28T06:30:05Z</time>
      </trkpt>
      <trkpt lat="45.30773" lon="4.65382">
        <ele>583</ele>
        <time>2020-07-28T06:30:26Z</time>
      </trkpt>
      <trkpt lat="45.30809" lon="4.65354">
        <ele>582</ele>
        <time>2020-07-28T06:30:31Z</time>
      </trkpt>
      <trkpt lat="45.3082" lon="4.65337">
        <ele>581</ele>
        <time>2020-07-28T06:30:33Z</time>
      </trkpt>
      <trkpt lat="45.30866" lon="4.65242">
        <ele>582</ele>
        <time>2020-07-28T06:30:43Z</time>
      </trkpt>
      <trkpt lat="45.30901" lon="4.652">
        <ele>582</ele>
        <time>2020-07-28T06:30:49Z</time>
      </trkpt>
      <trkpt lat="45.31058" lon="4.65054">
        <ele>585</ele>
        <time>2020-07-28T06:31:19Z</time>
      </trkpt>
      <trkpt lat="45.3121" lon="4.64912">
        <ele>585</ele>
        <time>2020-07-28T06:31:49Z</time>
      </trkpt>
      <trkpt lat="45.3135" lon="4.64774">
        <ele>587</ele>
        <time>2020-07-28T06:32:19Z</time>
      </trkpt>
      <trkpt lat="45.31463" lon="4.64627">
        <ele>590</ele>
        <time>2020-07-28T06:32:49Z</time>
      </trkpt>
      <trkpt lat="45.31574" lon="4.6447">
        <ele>593</ele>
        <time>2020-07-28T06:33:19Z</time>
      </trkpt>
      <trkpt lat="45.31603" lon="4.64442">
        <ele>592</ele>
        <time>2020-07-28T06:33:25Z</time>
      </trkpt>
      <trkpt lat="45.31786" lon="4.6434">
        <ele>586</ele>
        <time>2020-07-28T06:33:51Z</time>
      </trkpt>
      <trkpt lat="45.31799" lon="4.64324">
        <ele>585</ele>
        <time>2020-07-28T06:33:53Z</time>
      </trkpt>
      <trkpt lat="45.31807" lon="4.64302">
        <ele>585</ele>
        <time>2020-07-28T06:33:55Z</time>
      </trkpt>
      <trkpt lat="45.31809" lon="4.6429">
        <ele>584</ele>
        <time>2020-07-28T06:33:56Z</time>
      </trkpt>
      <trkpt lat="45.31807" lon="4.64266">
        <ele>584</ele>
        <time>2020-07-28T06:33:58Z</time>
      </trkpt>
      <trkpt lat="45.31794" lon="4.64233">
        <ele>583</ele>
        <time>2020-07-28T06:34:01Z</time>
      </trkpt>
      <trkpt lat="45.31764" lon="4.64172">
        <ele>581</ele>
        <time>2020-07-28T06:34:07Z</time>
      </trkpt>
      <trkpt lat="45.31745" lon="4.641">
        <ele>579</ele>
        <time>2020-07-28T06:34:13Z</time>
      </trkpt>
      <trkpt lat="45.31722" lon="4.63815">
        <ele>572</ele>
        <time>2020-07-28T06:34:35Z</time>
      </trkpt>
      <trkpt lat="45.31728" lon="4.63672">
        <ele>568</ele>
        <time>2020-07-28T06:34:46Z</time>
      </trkpt>
      <trkpt lat="45.31742" lon="4.63625">
        <ele>567</ele>
        <time>2020-07-28T06:34:50Z</time>
      </trkpt>
      <trkpt lat="45.3184" lon="4.63354">
        <ele>558</ele>
        <time>2020-07-28T06:35:16Z</time>
      </trkpt>
      <trkpt lat="45.31842" lon="4.63336">
        <ele>558</ele>
        <time>2020-07-28T06:35:18Z</time>
      </trkpt>
      <trkpt lat="45.31841" lon="4.6331">
        <ele>557</ele>
        <time>2020-07-28T06:35:21Z</time>
      </trkpt>
      <trkpt lat="45.31877" lon="4.63073">
        <ele>559</ele>
        <time>2020-07-28T06:35:51Z</time>
      </trkpt>
      <trkpt lat="45.31898" lon="4.62875">
        <ele>564</ele>
        <time>2020-07-28T06:36:21Z</time>
      </trkpt>
      <trkpt lat="45.31892" lon="4.62714">
        <ele>564</ele>
        <time>2020-07-28T06:36:43Z</time>
      </trkpt>
      <trkpt lat="45.31918" lon="4.62589">
        <ele>568</ele>
        <time>2020-07-28T06:37:03Z</time>
      </trkpt>
      <trkpt lat="45.31927" lon="4.62563">
        <ele>570</ele>
        <time>2020-07-28T06:37:09Z</time>
      </trkpt>
      <trkpt lat="45.31949" lon="4.62526">
        <ele>571</ele>
        <time>2020-07-28T06:37:19Z</time>
      </trkpt>
      <trkpt lat="45.31951" lon="4.62517">
        <ele>572</ele>
        <time>2020-07-28T06:37:21Z</time>
      </trkpt>
      <trkpt lat="45.31947" lon="4.62483">
        <ele>572</ele>
        <time>2020-07-28T06:37:28Z</time>
      </trkpt>
      <trkpt lat="45.31947" lon="4.62465">
        <ele>573</ele>
        <time>2020-07-28T06:37:32Z</time>
      </trkpt>
      <trkpt lat="45.31958" lon="4.62417">
        <ele>574</ele>
        <time>2020-07-28T06:37:42Z</time>
      </trkpt>
      <trkpt lat="45.32008" lon="4.62259">
        <ele>577</ele>
        <time>2020-07-28T06:38:12Z</time>
      </trkpt>
      <trkpt lat="45.32067" lon="4.62073">
        <ele>578</ele>
        <time>2020-07-28T06:38:42Z</time>
      </trkpt>
      <trkpt lat="45.32093" lon="4.61982">
        <ele>579</ele>
        <time>2020-07-28T06:38:56Z</time>
      </trkpt>
      <trkpt lat="45.32125" lon="4.61786">
        <ele>580</ele>
        <time>2020-07-28T06:39:23Z</time>
      </trkpt>
      <trkpt lat="45.32206" lon="4.61632">
        <ele>579</ele>
        <time>2020-07-28T06:39:48Z</time>
      </trkpt>
      <trkpt lat="45.32217" lon="4.61615">
        <ele>579</ele>
        <time>2020-07-28T06:39:51Z</time>
      </trkpt>
      <trkpt lat="45.3222" lon="4.61608">
        <ele>579</ele>
        <time>2020-07-28T06:39:52Z</time>
      </trkpt>
      <trkpt lat="45.32222" lon="4.61601">
        <ele>579</ele>
        <time>2020-07-28T06:39:53Z</time>
      </trkpt>
      <trkpt lat="45.32212" lon="4.6155">
        <ele>579</ele>
        <time>2020-07-28T06:40:00Z</time>
      </trkpt>
      <trkpt lat="45.32194" lon="4.6149">
        <ele>581</ele>
        <time>2020-07-28T06:40:10Z</time>
      </trkpt>
      <trkpt lat="45.32193" lon="4.61479">
        <ele>581</ele>
        <time>2020-07-28T06:40:12Z</time>
      </trkpt>
      <trkpt lat="45.32194" lon="4.6147">
        <ele>581</ele>
        <time>2020-07-28T06:40:14Z</time>
      </trkpt>
      <trkpt lat="45.32288" lon="4.61378">
        <ele>586</ele>
        <time>2020-07-28T06:40:45Z</time>
      </trkpt>
      <trkpt lat="45.32376" lon="4.61285">
        <ele>591</ele>
        <time>2020-07-28T06:41:16Z</time>
      </trkpt>
      <trkpt lat="45.32437" lon="4.61221">
        <ele>595</ele>
        <time>2020-07-28T06:41:37Z</time>
      </trkpt>
      <trkpt lat="45.32487" lon="4.61142">
        <ele>600</ele>
        <time>2020-07-28T06:41:58Z</time>
      </trkpt>
      <trkpt lat="45.3249" lon="4.61133">
        <ele>600</ele>
        <time>2020-07-28T06:42:00Z</time>
      </trkpt>
      <trkpt lat="45.32491" lon="4.61123">
        <ele>600</ele>
        <time>2020-07-28T06:42:02Z</time>
      </trkpt>
      <trkpt lat="45.3249" lon="4.61114">
        <ele>601</ele>
        <time>2020-07-28T06:42:04Z</time>
      </trkpt>
      <trkpt lat="45.32483" lon="4.61099">
        <ele>601</ele>
        <time>2020-07-28T06:42:08Z</time>
      </trkpt>
      <trkpt lat="45.32472" lon="4.6109">
        <ele>602</ele>
        <time>2020-07-28T06:42:12Z</time>
      </trkpt>
      <trkpt lat="45.32376" lon="4.61062">
        <ele>609</ele>
        <time>2020-07-28T06:42:42Z</time>
      </trkpt>
      <trkpt lat="45.32345" lon="4.61046">
        <ele>611</ele>
        <time>2020-07-28T06:42:52Z</time>
      </trkpt>
      <trkpt lat="45.32328" lon="4.61032">
        <ele>611</ele>
        <time>2020-07-28T06:42:58Z</time>
      </trkpt>
      <trkpt lat="45.32318" lon="4.6102">
        <ele>612</ele>
        <time>2020-07-28T06:43:02Z</time>
      </trkpt>
      <trkpt lat="45.32312" lon="4.61005">
        <ele>613</ele>
        <time>2020-07-28T06:43:06Z</time>
      </trkpt>
      <trkpt lat="45.32307" lon="4.60989">
        <ele>614</ele>
        <time>2020-07-28T06:43:10Z</time>
      </trkpt>
      <trkpt lat="45.32306" lon="4.60973">
        <ele>615</ele>
        <time>2020-07-28T06:43:14Z</time>
      </trkpt>
      <trkpt lat="45.3231" lon="4.60951">
        <ele>617</ele>
        <time>2020-07-28T06:43:20Z</time>
      </trkpt>
      <trkpt lat="45.32358" lon="4.6086">
        <ele>622</ele>
        <time>2020-07-28T06:43:48Z</time>
      </trkpt>
      <trkpt lat="45.32383" lon="4.60827">
        <ele>625</ele>
        <time>2020-07-28T06:44:00Z</time>
      </trkpt>
      <trkpt lat="45.32434" lon="4.60789">
        <ele>629</ele>
        <time>2020-07-28T06:44:20Z</time>
      </trkpt>
      <trkpt lat="45.32484" lon="4.60767">
        <ele>632</ele>
        <time>2020-07-28T06:44:38Z</time>
      </trkpt>
      <trkpt lat="45.32518" lon="4.60764">
        <ele>635</ele>
        <time>2020-07-28T06:44:50Z</time>
      </trkpt>
      <trkpt lat="45.32564" lon="4.60769">
        <ele>638</ele>
        <time>2020-07-28T06:45:06Z</time>
      </trkpt>
      <trkpt lat="45.32584" lon="4.60762">
        <ele>640</ele>
        <time>2020-07-28T06:45:13Z</time>
      </trkpt>
      <trkpt lat="45.32612" lon="4.60741">
        <ele>642</ele>
        <time>2020-07-28T06:45:24Z</time>
      </trkpt>
      <trkpt lat="45.32623" lon="4.60727">
        <ele>642</ele>
        <time>2020-07-28T06:45:29Z</time>
      </trkpt>
      <trkpt lat="45.32629" lon="4.60717">
        <ele>643</ele>
        <time>2020-07-28T06:45:32Z</time>
      </trkpt>
      <trkpt lat="45.32633" lon="4.60702">
        <ele>644</ele>
        <time>2020-07-28T06:45:36Z</time>
      </trkpt>
      <trkpt lat="45.32639" lon="4.60661">
        <ele>646</ele>
        <time>2020-07-28T06:45:46Z</time>
      </trkpt>
      <trkpt lat="45.3264" lon="4.60595">
        <ele>649</ele>
        <time>2020-07-28T06:46:02Z</time>
      </trkpt>
      <trkpt lat="45.32642" lon="4.60587">
        <ele>650</ele>
        <time>2020-07-28T06:46:04Z</time>
      </trkpt>
      <trkpt lat="45.32647" lon="4.60577">
        <ele>650</ele>
        <time>2020-07-28T06:46:07Z</time>
      </trkpt>
      <trkpt lat="45.32653" lon="4.60569">
        <ele>651</ele>
        <time>2020-07-28T06:46:10Z</time>
      </trkpt>
      <trkpt lat="45.3266" lon="4.60563">
        <ele>652</ele>
        <time>2020-07-28T06:46:13Z</time>
      </trkpt>
      <trkpt lat="45.32745" lon="4.60524">
        <ele>658</ele>
        <time>2020-07-28T06:46:43Z</time>
      </trkpt>
      <trkpt lat="45.32827" lon="4.60484">
        <ele>664</ele>
        <time>2020-07-28T06:47:14Z</time>
      </trkpt>
      <trkpt lat="45.32843" lon="4.60482">
        <ele>666</ele>
        <time>2020-07-28T06:47:20Z</time>
      </trkpt>
      <trkpt lat="45.32883" lon="4.60492">
        <ele>668</ele>
        <time>2020-07-28T06:47:35Z</time>
      </trkpt>
      <trkpt lat="45.32924" lon="4.60513">
        <ele>671</ele>
        <time>2020-07-28T06:47:51Z</time>
      </trkpt>
      <trkpt lat="45.32939" lon="4.60515">
        <ele>671</ele>
        <time>2020-07-28T06:47:57Z</time>
      </trkpt>
      <trkpt lat="45.32945" lon="4.60513">
        <ele>672</ele>
        <time>2020-07-28T06:47:59Z</time>
      </trkpt>
      <trkpt lat="45.32953" lon="4.60507">
        <ele>672</ele>
        <time>2020-07-28T06:48:02Z</time>
      </trkpt>
      <trkpt lat="45.32964" lon="4.60487">
        <ele>674</ele>
        <time>2020-07-28T06:48:08Z</time>
      </trkpt>
      <trkpt lat="45.32999" lon="4.60418">
        <ele>678</ele>
        <time>2020-07-28T06:48:28Z</time>
      </trkpt>
      <trkpt lat="45.33047" lon="4.60365">
        <ele>682</ele>
        <time>2020-07-28T06:48:49Z</time>
      </trkpt>
      <trkpt lat="45.33071" lon="4.60349">
        <ele>684</ele>
        <time>2020-07-28T06:48:58Z</time>
      </trkpt>
      <trkpt lat="45.33145" lon="4.60322">
        <ele>690</ele>
        <time>2020-07-28T06:49:23Z</time>
      </trkpt>
      <trkpt lat="45.33171" lon="4.60295">
        <ele>692</ele>
        <time>2020-07-28T06:49:34Z</time>
      </trkpt>
      <trkpt lat="45.3318" lon="4.60278">
        <ele>693</ele>
        <time>2020-07-28T06:49:39Z</time>
      </trkpt>
      <trkpt lat="45.33201" lon="4.60196">
        <ele>697</ele>
        <time>2020-07-28T06:50:00Z</time>
      </trkpt>
      <trkpt lat="45.33219" lon="4.60077">
        <ele>702</ele>
        <time>2020-07-28T06:50:29Z</time>
      </trkpt>
      <trkpt lat="45.3322" lon="4.60036">
        <ele>703</ele>
        <time>2020-07-28T06:50:39Z</time>
      </trkpt>
      <trkpt lat="45.33214" lon="4.59912">
        <ele>708</ele>
        <time>2020-07-28T06:51:08Z</time>
      </trkpt>
      <trkpt lat="45.33227" lon="4.59793">
        <ele>715</ele>
        <time>2020-07-28T06:51:38Z</time>
      </trkpt>
      <trkpt lat="45.33224" lon="4.5974">
        <ele>718</ele>
        <time>2020-07-28T06:51:51Z</time>
      </trkpt>
      <trkpt lat="45.33216" lon="4.59688">
        <ele>720</ele>
        <time>2020-07-28T06:52:03Z</time>
      </trkpt>
      <trkpt lat="45.33217" lon="4.59679">
        <ele>720</ele>
        <time>2020-07-28T06:52:05Z</time>
      </trkpt>
      <trkpt lat="45.33218" lon="4.5967">
        <ele>720</ele>
        <time>2020-07-28T06:52:07Z</time>
      </trkpt>
      <trkpt lat="45.33222" lon="4.59663">
        <ele>721</ele>
        <time>2020-07-28T06:52:09Z</time>
      </trkpt>
      <trkpt lat="45.33229" lon="4.59654">
        <ele>721</ele>
        <time>2020-07-28T06:52:12Z</time>
      </trkpt>
      <trkpt lat="45.33234" lon="4.5965">
        <ele>722</ele>
        <time>2020-07-28T06:52:14Z</time>
      </trkpt>
      <trkpt lat="45.33244" lon="4.59649">
        <ele>722</ele>
        <time>2020-07-28T06:52:17Z</time>
      </trkpt>
      <trkpt lat="45.3325" lon="4.5965">
        <ele>722</ele>
        <time>2020-07-28T06:52:19Z</time>
      </trkpt>
      <trkpt lat="45.33259" lon="4.59654">
        <ele>723</ele>
        <time>2020-07-28T06:52:22Z</time>
      </trkpt>
      <trkpt lat="45.33266" lon="4.59661">
        <ele>724</ele>
        <time>2020-07-28T06:52:25Z</time>
      </trkpt>
      <trkpt lat="45.3332" lon="4.59743">
        <ele>728</ele>
        <time>2020-07-28T06:52:51Z</time>
      </trkpt>
      <trkpt lat="45.33335" lon="4.59785">
        <ele>731</ele>
        <time>2020-07-28T06:53:02Z</time>
      </trkpt>
      <trkpt lat="45.33371" lon="4.59912">
        <ele>737</ele>
        <time>2020-07-28T06:53:32Z</time>
      </trkpt>
      <trkpt lat="45.33421" lon="4.60013">
        <ele>742</ele>
        <time>2020-07-28T06:54:02Z</time>
      </trkpt>
      <trkpt lat="45.33444" lon="4.60088">
        <ele>747</ele>
        <time>2020-07-28T06:54:22Z</time>
      </trkpt>
      <trkpt lat="45.33447" lon="4.60104">
        <ele>747</ele>
        <time>2020-07-28T06:54:26Z</time>
      </trkpt>
      <trkpt lat="45.33452" lon="4.60169">
        <ele>750</ele>
        <time>2020-07-28T06:54:41Z</time>
      </trkpt>
      <trkpt lat="45.33466" lon="4.60213">
        <ele>753</ele>
        <time>2020-07-28T06:54:52Z</time>
      </trkpt>
      <trkpt lat="45.33479" lon="4.60241">
        <ele>754</ele>
        <time>2020-07-28T06:55:00Z</time>
      </trkpt>
      <trkpt lat="45.33488" lon="4.60253">
        <ele>755</ele>
        <time>2020-07-28T06:55:04Z</time>
      </trkpt>
      <trkpt lat="45.33502" lon="4.60262">
        <ele>756</ele>
        <time>2020-07-28T06:55:09Z</time>
      </trkpt>
      <trkpt lat="45.33508" lon="4.60264">
        <ele>756</ele>
        <time>2020-07-28T06:55:11Z</time>
      </trkpt>
      <trkpt lat="45.33517" lon="4.60264">
        <ele>757</ele>
        <time>2020-07-28T06:55:14Z</time>
      </trkpt>
      <trkpt lat="45.33526" lon="4.60261">
        <ele>758</ele>
        <time>2020-07-28T06:55:17Z</time>
      </trkpt>
      <trkpt lat="45.33536" lon="4.60251">
        <ele>758</ele>
        <time>2020-07-28T06:55:21Z</time>
      </trkpt>
      <trkpt lat="45.33551" lon="4.6023">
        <ele>759</ele>
        <time>2020-07-28T06:55:28Z</time>
      </trkpt>
      <trkpt lat="45.33607" lon="4.60142">
        <ele>765</ele>
        <time>2020-07-28T06:55:58Z</time>
      </trkpt>
      <trkpt lat="45.33639" lon="4.6009">
        <ele>768</ele>
        <time>2020-07-28T06:56:16Z</time>
      </trkpt>
      <trkpt lat="45.33644" lon="4.60086">
        <ele>769</ele>
        <time>2020-07-28T06:56:18Z</time>
      </trkpt>
      <trkpt lat="45.33652" lon="4.60083">
        <ele>769</ele>
        <time>2020-07-28T06:56:21Z</time>
      </trkpt>
      <trkpt lat="45.33664" lon="4.60083">
        <ele>770</ele>
        <time>2020-07-28T06:56:25Z</time>
      </trkpt>
      <trkpt lat="45.3367" lon="4.60085">
        <ele>770</ele>
        <time>2020-07-28T06:56:27Z</time>
      </trkpt>
      <trkpt lat="45.337" lon="4.60107">
        <ele>772</ele>
        <time>2020-07-28T06:56:38Z</time>
      </trkpt>
      <trkpt lat="45.33707" lon="4.60117">
        <ele>772</ele>
        <time>2020-07-28T06:56:41Z</time>
      </trkpt>
      <trkpt lat="45.3372" lon="4.60142">
        <ele>773</ele>
        <time>2020-07-28T06:56:48Z</time>
      </trkpt>
      <trkpt lat="45.33741" lon="4.60212">
        <ele>777</ele>
        <time>2020-07-28T06:57:05Z</time>
      </trkpt>
      <trkpt lat="45.33745" lon="4.60228">
        <ele>777</ele>
        <time>2020-07-28T06:57:09Z</time>
      </trkpt>
      <trkpt lat="45.33756" lon="4.6025">
        <ele>778</ele>
        <time>2020-07-28T06:57:15Z</time>
      </trkpt>
      <trkpt lat="45.33769" lon="4.60269">
        <ele>780</ele>
        <time>2020-07-28T06:57:21Z</time>
      </trkpt>
      <trkpt lat="45.33779" lon="4.60277">
        <ele>780</ele>
        <time>2020-07-28T06:57:25Z</time>
      </trkpt>
      <trkpt lat="45.33785" lon="4.60279">
        <ele>780</ele>
        <time>2020-07-28T06:57:27Z</time>
      </trkpt>
      <trkpt lat="45.33795" lon="4.6028">
        <ele>781</ele>
        <time>2020-07-28T06:57:30Z</time>
      </trkpt>
      <trkpt lat="45.33801" lon="4.60279">
        <ele>781</ele>
        <time>2020-07-28T06:57:32Z</time>
      </trkpt>
      <trkpt lat="45.33806" lon="4.60275">
        <ele>782</ele>
        <time>2020-07-28T06:57:34Z</time>
      </trkpt>
      <trkpt lat="45.33813" lon="4.60266">
        <ele>782</ele>
        <time>2020-07-28T06:57:37Z</time>
      </trkpt>
      <trkpt lat="45.33818" lon="4.60255">
        <ele>783</ele>
        <time>2020-07-28T06:57:40Z</time>
      </trkpt>
      <trkpt lat="45.33824" lon="4.60235">
        <ele>784</ele>
        <time>2020-07-28T06:57:45Z</time>
      </trkpt>
      <trkpt lat="45.3383" lon="4.60227">
        <ele>785</ele>
        <time>2020-07-28T06:57:48Z</time>
      </trkpt>
      <trkpt lat="45.33842" lon="4.60219">
        <ele>786</ele>
        <time>2020-07-28T06:57:53Z</time>
      </trkpt>
      <trkpt lat="45.3385" lon="4.60208">
        <ele>786</ele>
        <time>2020-07-28T06:57:57Z</time>
      </trkpt>
      <trkpt lat="45.33876" lon="4.60162">
        <ele>790</ele>
        <time>2020-07-28T06:58:14Z</time>
      </trkpt>
      <trkpt lat="45.33877" lon="4.60166">
        <ele>790</ele>
        <time>2020-07-28T06:58:44Z</time>
      </trkpt>
      <trkpt lat="45.33881" lon="4.60161">
        <ele>794</ele>
        <time>2020-07-28T07:02:57Z</time>
      </trkpt>
      <trkpt lat="45.33908" lon="4.60142">
        <ele>799</ele>
        <time>2020-07-28T07:03:04Z</time>
      </trkpt>
      <trkpt lat="45.33973" lon="4.6005">
        <ele>794</ele>
        <time>2020-07-28T07:03:22Z</time>
      </trkpt>
      <trkpt lat="45.34015" lon="4.59957">
        <ele>794</ele>
        <time>2020-07-28T07:03:38Z</time>
      </trkpt>
      <trkpt lat="45.34051" lon="4.59841">
        <ele>794</ele>
        <time>2020-07-28T07:03:54Z</time>
      </trkpt>
      <trkpt lat="45.34053" lon="4.59801">
        <ele>793</ele>
        <time>2020-07-28T07:03:59Z</time>
      </trkpt>
      <trkpt lat="45.34053" lon="4.59749">
        <ele>793</ele>
        <time>2020-07-28T07:04:05Z</time>
      </trkpt>
      <trkpt lat="45.34063" lon="4.59698">
        <ele>794</ele>
        <time>2020-07-28T07:04:11Z</time>
      </trkpt>
      <trkpt lat="45.34088" lon="4.59626">
        <ele>794</ele>
        <time>2020-07-28T07:04:21Z</time>
      </trkpt>
      <trkpt lat="45.34096" lon="4.59613">
        <ele>794</ele>
        <time>2020-07-28T07:04:23Z</time>
      </trkpt>
      <trkpt lat="45.34107" lon="4.59602">
        <ele>793</ele>
        <time>2020-07-28T07:04:25Z</time>
      </trkpt>
      <trkpt lat="45.34118" lon="4.59597">
        <ele>792</ele>
        <time>2020-07-28T07:04:27Z</time>
      </trkpt>
      <trkpt lat="45.34123" lon="4.59596">
        <ele>792</ele>
        <time>2020-07-28T07:04:28Z</time>
      </trkpt>
      <trkpt lat="45.34134" lon="4.59596">
        <ele>792</ele>
        <time>2020-07-28T07:04:30Z</time>
      </trkpt>
      <trkpt lat="45.34144" lon="4.59602">
        <ele>792</ele>
        <time>2020-07-28T07:04:32Z</time>
      </trkpt>
      <trkpt lat="45.34151" lon="4.59614">
        <ele>792</ele>
        <time>2020-07-28T07:04:34Z</time>
      </trkpt>
      <trkpt lat="45.34172" lon="4.59734">
        <ele>796</ele>
        <time>2020-07-28T07:04:52Z</time>
      </trkpt>
      <trkpt lat="45.34183" lon="4.59753">
        <ele>796</ele>
        <time>2020-07-28T07:04:56Z</time>
      </trkpt>
      <trkpt lat="45.3421" lon="4.59785">
        <ele>798</ele>
        <time>2020-07-28T07:05:04Z</time>
      </trkpt>
      <trkpt lat="45.34229" lon="4.59825">
        <ele>799</ele>
        <time>2020-07-28T07:05:12Z</time>
      </trkpt>
      <trkpt lat="45.34262" lon="4.59951">
        <ele>802</ele>
        <time>2020-07-28T07:05:34Z</time>
      </trkpt>
      <trkpt lat="45.34274" lon="4.59969">
        <ele>803</ele>
        <time>2020-07-28T07:05:38Z</time>
      </trkpt>
      <trkpt lat="45.34297" lon="4.5999">
        <ele>804</ele>
        <time>2020-07-28T07:05:44Z</time>
      </trkpt>
      <trkpt lat="45.34356" lon="4.60027">
        <ele>806</ele>
        <time>2020-07-28T07:06:00Z</time>
      </trkpt>
      <trkpt lat="45.34387" lon="4.60058">
        <ele>807</ele>
        <time>2020-07-28T07:06:10Z</time>
      </trkpt>
      <trkpt lat="45.34398" lon="4.60081">
        <ele>808</ele>
        <time>2020-07-28T07:06:16Z</time>
      </trkpt>
      <trkpt lat="45.34419" lon="4.6019">
        <ele>810</ele>
        <time>2020-07-28T07:06:37Z</time>
      </trkpt>
      <trkpt lat="45.34418" lon="4.60218">
        <ele>811</ele>
        <time>2020-07-28T07:06:43Z</time>
      </trkpt>
      <trkpt lat="45.34406" lon="4.6032">
        <ele>813</ele>
        <time>2020-07-28T07:07:01Z</time>
      </trkpt>
      <trkpt lat="45.34409" lon="4.60343">
        <ele>813</ele>
        <time>2020-07-28T07:07:05Z</time>
      </trkpt>
      <trkpt lat="45.34417" lon="4.6036">
        <ele>814</ele>
        <time>2020-07-28T07:07:09Z</time>
      </trkpt>
      <trkpt lat="45.34499" lon="4.60445">
        <ele>816</ele>
        <time>2020-07-28T07:07:33Z</time>
      </trkpt>
      <trkpt lat="45.34532" lon="4.60466">
        <ele>817</ele>
        <time>2020-07-28T07:07:42Z</time>
      </trkpt>
      <trkpt lat="45.34547" lon="4.6047">
        <ele>818</ele>
        <time>2020-07-28T07:07:46Z</time>
      </trkpt>
      <trkpt lat="45.34552" lon="4.60474">
        <ele>818</ele>
        <time>2020-07-28T07:07:48Z</time>
      </trkpt>
      <trkpt lat="45.3456" lon="4.60491">
        <ele>819</ele>
        <time>2020-07-28T07:07:52Z</time>
      </trkpt>
      <trkpt lat="45.34565" lon="4.60498">
        <ele>819</ele>
        <time>2020-07-28T07:07:54Z</time>
      </trkpt>
      <trkpt lat="45.34595" lon="4.60513">
        <ele>816</ele>
        <time>2020-07-28T07:08:00Z</time>
      </trkpt>
      <trkpt lat="45.34616" lon="4.60513">
        <ele>815</ele>
        <time>2020-07-28T07:08:03Z</time>
      </trkpt>
      <trkpt lat="45.34631" lon="4.60509">
        <ele>815</ele>
        <time>2020-07-28T07:08:05Z</time>
      </trkpt>
      <trkpt lat="45.34643" lon="4.60498">
        <ele>814</ele>
        <time>2020-07-28T07:08:07Z</time>
      </trkpt>
      <trkpt lat="45.34692" lon="4.60435">
        <ele>812</ele>
        <time>2020-07-28T07:08:15Z</time>
      </trkpt>
      <trkpt lat="45.34716" lon="4.60421">
        <ele>812</ele>
        <time>2020-07-28T07:08:18Z</time>
      </trkpt>
      <trkpt lat="45.34733" lon="4.6042">
        <ele>811</ele>
        <time>2020-07-28T07:08:20Z</time>
      </trkpt>
      <trkpt lat="45.34757" lon="4.60426">
        <ele>811</ele>
        <time>2020-07-28T07:08:23Z</time>
      </trkpt>
      <trkpt lat="45.34809" lon="4.60456">
        <ele>810</ele>
        <time>2020-07-28T07:08:30Z</time>
      </trkpt>
      <trkpt lat="45.3482" lon="4.60467">
        <ele>810</ele>
        <time>2020-07-28T07:08:32Z</time>
      </trkpt>
      <trkpt lat="45.34836" lon="4.60499">
        <ele>810</ele>
        <time>2020-07-28T07:08:36Z</time>
      </trkpt>
      <trkpt lat="45.34855" lon="4.60541">
        <ele>810</ele>
        <time>2020-07-28T07:08:41Z</time>
      </trkpt>
      <trkpt lat="45.34865" lon="4.60554">
        <ele>810</ele>
        <time>2020-07-28T07:08:43Z</time>
      </trkpt>
      <trkpt lat="45.34934" lon="4.60603">
        <ele>808</ele>
        <time>2020-07-28T07:08:54Z</time>
      </trkpt>
      <trkpt lat="45.3495" lon="4.6061">
        <ele>807</ele>
        <time>2020-07-28T07:08:56Z</time>
      </trkpt>
      <trkpt lat="45.34966" lon="4.60612">
        <ele>807</ele>
        <time>2020-07-28T07:08:58Z</time>
      </trkpt>
      <trkpt lat="45.34992" lon="4.60607">
        <ele>805</ele>
        <time>2020-07-28T07:09:01Z</time>
      </trkpt>
      <trkpt lat="45.3501" lon="4.60613">
        <ele>805</ele>
        <time>2020-07-28T07:09:03Z</time>
      </trkpt>
      <trkpt lat="45.35024" lon="4.60628">
        <ele>804</ele>
        <time>2020-07-28T07:09:05Z</time>
      </trkpt>
      <trkpt lat="45.35045" lon="4.60653">
        <ele>803</ele>
        <time>2020-07-28T07:09:08Z</time>
      </trkpt>
      <trkpt lat="45.3507" lon="4.60669">
        <ele>802</ele>
        <time>2020-07-28T07:09:11Z</time>
      </trkpt>
      <trkpt lat="45.35173" lon="4.60708">
        <ele>797</ele>
        <time>2020-07-28T07:09:22Z</time>
      </trkpt>
      <trkpt lat="45.35186" lon="4.6072">
        <ele>797</ele>
        <time>2020-07-28T07:09:24Z</time>
      </trkpt>
      <trkpt lat="45.3519" lon="4.60727">
        <ele>797</ele>
        <time>2020-07-28T07:09:25Z</time>
      </trkpt>
      <trkpt lat="45.35194" lon="4.60734">
        <ele>797</ele>
        <time>2020-07-28T07:09:26Z</time>
      </trkpt>
      <trkpt lat="45.35194" lon="4.60743">
        <ele>797</ele>
        <time>2020-07-28T07:09:27Z</time>
      </trkpt>
      <trkpt lat="45.35192" lon="4.60751">
        <ele>797</ele>
        <time>2020-07-28T07:09:28Z</time>
      </trkpt>
      <trkpt lat="45.35189" lon="4.60758">
        <ele>797</ele>
        <time>2020-07-28T07:09:29Z</time>
      </trkpt>
      <trkpt lat="45.35185" lon="4.60764">
        <ele>797</ele>
        <time>2020-07-28T07:09:30Z</time>
      </trkpt>
      <trkpt lat="45.3518" lon="4.60768">
        <ele>797</ele>
        <time>2020-07-28T07:09:31Z</time>
      </trkpt>
      <trkpt lat="45.35099" lon="4.60804">
        <ele>800</ele>
        <time>2020-07-28T07:09:48Z</time>
      </trkpt>
      <trkpt lat="45.35084" lon="4.60819">
        <ele>800</ele>
        <time>2020-07-28T07:09:52Z</time>
      </trkpt>
      <trkpt lat="45.35058" lon="4.60864">
        <ele>803</ele>
        <time>2020-07-28T07:10:02Z</time>
      </trkpt>
      <trkpt lat="45.35" lon="4.61007">
        <ele>809</ele>
        <time>2020-07-28T07:10:32Z</time>
      </trkpt>
      <trkpt lat="45.34962" lon="4.61097">
        <ele>813</ele>
        <time>2020-07-28T07:10:50Z</time>
      </trkpt>
      <trkpt lat="45.34938" lon="4.61235">
        <ele>811</ele>
        <time>2020-07-28T07:11:08Z</time>
      </trkpt>
      <trkpt lat="45.34938" lon="4.61256">
        <ele>810</ele>
        <time>2020-07-28T07:11:10Z</time>
      </trkpt>
      <trkpt lat="45.34941" lon="4.61276">
        <ele>810</ele>
        <time>2020-07-28T07:11:12Z</time>
      </trkpt>
      <trkpt lat="45.34971" lon="4.61356">
        <ele>811</ele>
        <time>2020-07-28T07:11:22Z</time>
      </trkpt>
      <trkpt lat="45.34972" lon="4.61385">
        <ele>811</ele>
        <time>2020-07-28T07:11:25Z</time>
      </trkpt>
      <trkpt lat="45.34913" lon="4.61651">
        <ele>812</ele>
        <time>2020-07-28T07:11:55Z</time>
      </trkpt>
      <trkpt lat="45.34855" lon="4.61892">
        <ele>811</ele>
        <time>2020-07-28T07:12:25Z</time>
      </trkpt>
      <trkpt lat="45.34836" lon="4.61948">
        <ele>810</ele>
        <time>2020-07-28T07:12:32Z</time>
      </trkpt>
      <trkpt lat="45.34749" lon="4.62147">
        <ele>805</ele>
        <time>2020-07-28T07:12:56Z</time>
      </trkpt>
      <trkpt lat="45.34744" lon="4.62169">
        <ele>804</ele>
        <time>2020-07-28T07:12:58Z</time>
      </trkpt>
      <trkpt lat="45.34744" lon="4.62193">
        <ele>803</ele>
        <time>2020-07-28T07:13:00Z</time>
      </trkpt>
      <trkpt lat="45.34749" lon="4.62217">
        <ele>802</ele>
        <time>2020-07-28T07:13:02Z</time>
      </trkpt>
      <trkpt lat="45.34771" lon="4.62278">
        <ele>799</ele>
        <time>2020-07-28T07:13:07Z</time>
      </trkpt>
      <trkpt lat="45.34772" lon="4.62307">
        <ele>798</ele>
        <time>2020-07-28T07:13:09Z</time>
      </trkpt>
      <trkpt lat="45.34707" lon="4.62715">
        <ele>790</ele>
        <time>2020-07-28T07:13:39Z</time>
      </trkpt>
      <trkpt lat="45.34709" lon="4.62752">
        <ele>789</ele>
        <time>2020-07-28T07:13:42Z</time>
      </trkpt>
      <trkpt lat="45.34722" lon="4.62843">
        <ele>786</ele>
        <time>2020-07-28T07:13:49Z</time>
      </trkpt>
      <trkpt lat="45.34739" lon="4.62893">
        <ele>784</ele>
        <time>2020-07-28T07:13:53Z</time>
      </trkpt>
      <trkpt lat="45.34751" lon="4.62916">
        <ele>783</ele>
        <time>2020-07-28T07:13:55Z</time>
      </trkpt>
      <trkpt lat="45.34801" lon="4.62987">
        <ele>780</ele>
        <time>2020-07-28T07:14:02Z</time>
      </trkpt>
      <trkpt lat="45.34861" lon="4.63118">
        <ele>773</ele>
        <time>2020-07-28T07:14:12Z</time>
      </trkpt>
      <trkpt lat="45.35075" lon="4.63371">
        <ele>756</ele>
        <time>2020-07-28T07:14:35Z</time>
      </trkpt>
      <trkpt lat="45.35152" lon="4.63489">
        <ele>751</ele>
        <time>2020-07-28T07:14:44Z</time>
      </trkpt>
      <trkpt lat="45.35164" lon="4.63504">
        <ele>750</ele>
        <time>2020-07-28T07:14:46Z</time>
      </trkpt>
      <trkpt lat="45.35167" lon="4.63511">
        <ele>750</ele>
        <time>2020-07-28T07:14:47Z</time>
      </trkpt>
      <trkpt lat="45.35168" lon="4.63518">
        <ele>749</ele>
        <time>2020-07-28T07:14:48Z</time>
      </trkpt>
      <trkpt lat="45.35165" lon="4.63524">
        <ele>748</ele>
        <time>2020-07-28T07:14:49Z</time>
      </trkpt>
      <trkpt lat="45.35162" lon="4.63529">
        <ele>748</ele>
        <time>2020-07-28T07:14:50Z</time>
      </trkpt>
      <trkpt lat="45.35157" lon="4.63525">
        <ele>747</ele>
        <time>2020-07-28T07:14:51Z</time>
      </trkpt>
      <trkpt lat="45.35129" lon="4.63486">
        <ele>744</ele>
        <time>2020-07-28T07:14:56Z</time>
      </trkpt>
      <trkpt lat="45.34996" lon="4.63348">
        <ele>734</ele>
        <time>2020-07-28T07:15:13Z</time>
      </trkpt>
      <trkpt lat="45.34988" lon="4.63353">
        <ele>733</ele>
        <time>2020-07-28T07:15:15Z</time>
      </trkpt>
      <trkpt lat="45.34991" lon="4.63365">
        <ele>733</ele>
        <time>2020-07-28T07:15:17Z</time>
      </trkpt>
      <trkpt lat="45.35014" lon="4.63387">
        <ele>730</ele>
        <time>2020-07-28T07:15:21Z</time>
      </trkpt>
      <trkpt lat="45.35109" lon="4.63548">
        <ele>721</ele>
        <time>2020-07-28T07:15:35Z</time>
      </trkpt>
      <trkpt lat="45.35124" lon="4.63594">
        <ele>719</ele>
        <time>2020-07-28T07:15:38Z</time>
      </trkpt>
      <trkpt lat="45.3515" lon="4.63691">
        <ele>714</ele>
        <time>2020-07-28T07:15:44Z</time>
      </trkpt>
      <trkpt lat="45.3517" lon="4.63733">
        <ele>712</ele>
        <time>2020-07-28T07:15:47Z</time>
      </trkpt>
      <trkpt lat="45.35187" lon="4.63754">
        <ele>710</ele>
        <time>2020-07-28T07:15:49Z</time>
      </trkpt>
      <trkpt lat="45.35207" lon="4.63768">
        <ele>709</ele>
        <time>2020-07-28T07:15:51Z</time>
      </trkpt>
      <trkpt lat="45.35229" lon="4.63776">
        <ele>707</ele>
        <time>2020-07-28T07:15:53Z</time>
      </trkpt>
      <trkpt lat="45.35264" lon="4.63773">
        <ele>705</ele>
        <time>2020-07-28T07:15:56Z</time>
      </trkpt>
      <trkpt lat="45.35311" lon="4.63766">
        <ele>702</ele>
        <time>2020-07-28T07:16:00Z</time>
      </trkpt>
      <trkpt lat="45.35389" lon="4.63785">
        <ele>700</ele>
        <time>2020-07-28T07:16:07Z</time>
      </trkpt>
      <trkpt lat="45.3541" lon="4.63782">
        <ele>698</ele>
        <time>2020-07-28T07:16:09Z</time>
      </trkpt>
      <trkpt lat="45.3567" lon="4.63653">
        <ele>679</ele>
        <time>2020-07-28T07:16:33Z</time>
      </trkpt>
      <trkpt lat="45.3568" lon="4.63651">
        <ele>678</ele>
        <time>2020-07-28T07:16:34Z</time>
      </trkpt>
      <trkpt lat="45.35723" lon="4.63676">
        <ele>677</ele>
        <time>2020-07-28T07:16:39Z</time>
      </trkpt>
      <trkpt lat="45.35786" lon="4.6375">
        <ele>675</ele>
        <time>2020-07-28T07:16:48Z</time>
      </trkpt>
      <trkpt lat="45.35805" lon="4.63783">
        <ele>673</ele>
        <time>2020-07-28T07:16:51Z</time>
      </trkpt>
      <trkpt lat="45.35814" lon="4.6381">
        <ele>671</ele>
        <time>2020-07-28T07:16:53Z</time>
      </trkpt>
      <trkpt lat="45.3582" lon="4.63855">
        <ele>669</ele>
        <time>2020-07-28T07:16:56Z</time>
      </trkpt>
      <trkpt lat="45.35814" lon="4.64025">
        <ele>662</ele>
        <time>2020-07-28T07:17:07Z</time>
      </trkpt>
      <trkpt lat="45.35819" lon="4.64047">
        <ele>661</ele>
        <time>2020-07-28T07:17:09Z</time>
      </trkpt>
      <trkpt lat="45.35828" lon="4.64067">
        <ele>660</ele>
        <time>2020-07-28T07:17:11Z</time>
      </trkpt>
      <trkpt lat="45.35846" lon="4.64096">
        <ele>658</ele>
        <time>2020-07-28T07:17:14Z</time>
      </trkpt>
      <trkpt lat="45.35861" lon="4.64112">
        <ele>657</ele>
        <time>2020-07-28T07:17:16Z</time>
      </trkpt>
      <trkpt lat="45.35924" lon="4.64159">
        <ele>653</ele>
        <time>2020-07-28T07:17:23Z</time>
      </trkpt>
      <trkpt lat="45.35945" lon="4.64192">
        <ele>652</ele>
        <time>2020-07-28T07:17:26Z</time>
      </trkpt>
      <trkpt lat="45.36009" lon="4.64305">
        <ele>645</ele>
        <time>2020-07-28T07:17:35Z</time>
      </trkpt>
      <trkpt lat="45.36044" lon="4.64347">
        <ele>642</ele>
        <time>2020-07-28T07:17:39Z</time>
      </trkpt>
      <trkpt lat="45.36063" lon="4.6436">
        <ele>640</ele>
        <time>2020-07-28T07:17:41Z</time>
      </trkpt>
      <trkpt lat="45.36116" lon="4.64367">
        <ele>637</ele>
        <time>2020-07-28T07:17:46Z</time>
      </trkpt>
      <trkpt lat="45.36247" lon="4.64342">
        <ele>630</ele>
        <time>2020-07-28T07:17:58Z</time>
      </trkpt>
      <trkpt lat="45.3629" lon="4.64324">
        <ele>628</ele>
        <time>2020-07-28T07:18:02Z</time>
      </trkpt>
      <trkpt lat="45.3635" lon="4.6429">
        <ele>625</ele>
        <time>2020-07-28T07:18:08Z</time>
      </trkpt>
      <trkpt lat="45.36358" lon="4.64289">
        <ele>624</ele>
        <time>2020-07-28T07:18:09Z</time>
      </trkpt>
      <trkpt lat="45.36367" lon="4.6429">
        <ele>624</ele>
        <time>2020-07-28T07:18:10Z</time>
      </trkpt>
      <trkpt lat="45.36374" lon="4.64295">
        <ele>623</ele>
        <time>2020-07-28T07:18:11Z</time>
      </trkpt>
      <trkpt lat="45.36381" lon="4.64303">
        <ele>623</ele>
        <time>2020-07-28T07:18:12Z</time>
      </trkpt>
      <trkpt lat="45.36386" lon="4.64313">
        <ele>623</ele>
        <time>2020-07-28T07:18:13Z</time>
      </trkpt>
      <trkpt lat="45.36391" lon="4.64337">
        <ele>622</ele>
        <time>2020-07-28T07:18:15Z</time>
      </trkpt>
      <trkpt lat="45.36387" lon="4.64436">
        <ele>618</ele>
        <time>2020-07-28T07:18:22Z</time>
      </trkpt>
      <trkpt lat="45.36371" lon="4.64508">
        <ele>616</ele>
        <time>2020-07-28T07:18:27Z</time>
      </trkpt>
      <trkpt lat="45.36338" lon="4.64637">
        <ele>611</ele>
        <time>2020-07-28T07:18:36Z</time>
      </trkpt>
      <trkpt lat="45.36334" lon="4.64682">
        <ele>609</ele>
        <time>2020-07-28T07:18:39Z</time>
      </trkpt>
      <trkpt lat="45.36339" lon="4.64728">
        <ele>608</ele>
        <time>2020-07-28T07:18:42Z</time>
      </trkpt>
      <trkpt lat="45.36402" lon="4.64982">
        <ele>599</ele>
        <time>2020-07-28T07:18:59Z</time>
      </trkpt>
      <trkpt lat="45.36404" lon="4.65154">
        <ele>592</ele>
        <time>2020-07-28T07:19:10Z</time>
      </trkpt>
      <trkpt lat="45.36408" lon="4.65166">
        <ele>592</ele>
        <time>2020-07-28T07:19:11Z</time>
      </trkpt>
      <trkpt lat="45.36413" lon="4.65176">
        <ele>591</ele>
        <time>2020-07-28T07:19:12Z</time>
      </trkpt>
      <trkpt lat="45.3642" lon="4.65184">
        <ele>591</ele>
        <time>2020-07-28T07:19:13Z</time>
      </trkpt>
      <trkpt lat="45.36437" lon="4.65193">
        <ele>589</ele>
        <time>2020-07-28T07:19:15Z</time>
      </trkpt>
      <trkpt lat="45.36698" lon="4.6526">
        <ele>576</ele>
        <time>2020-07-28T07:19:41Z</time>
      </trkpt>
      <trkpt lat="45.36705" lon="4.65266">
        <ele>576</ele>
        <time>2020-07-28T07:19:42Z</time>
      </trkpt>
      <trkpt lat="45.3671" lon="4.65275">
        <ele>576</ele>
        <time>2020-07-28T07:19:43Z</time>
      </trkpt>
      <trkpt lat="45.36713" lon="4.65286">
        <ele>575</ele>
        <time>2020-07-28T07:19:44Z</time>
      </trkpt>
      <trkpt lat="45.36716" lon="4.65372">
        <ele>573</ele>
        <time>2020-07-28T07:19:51Z</time>
      </trkpt>
      <trkpt lat="45.36716" lon="4.65424">
        <ele>571</ele>
        <time>2020-07-28T07:19:55Z</time>
      </trkpt>
      <trkpt lat="45.36723" lon="4.65449">
        <ele>570</ele>
        <time>2020-07-28T07:19:57Z</time>
      </trkpt>
      <trkpt lat="45.36746" lon="4.65493">
        <ele>568</ele>
        <time>2020-07-28T07:20:01Z</time>
      </trkpt>
      <trkpt lat="45.36751" lon="4.6552">
        <ele>567</ele>
        <time>2020-07-28T07:20:03Z</time>
      </trkpt>
      <trkpt lat="45.36755" lon="4.65606">
        <ele>564</ele>
        <time>2020-07-28T07:20:09Z</time>
      </trkpt>
      <trkpt lat="45.36768" lon="4.65644">
        <ele>563</ele>
        <time>2020-07-28T07:20:12Z</time>
      </trkpt>
      <trkpt lat="45.36817" lon="4.65764">
        <ele>559</ele>
        <time>2020-07-28T07:20:22Z</time>
      </trkpt>
      <trkpt lat="45.36823" lon="4.658">
        <ele>559</ele>
        <time>2020-07-28T07:20:25Z</time>
      </trkpt>
      <trkpt lat="45.36832" lon="4.6593">
        <ele>557</ele>
        <time>2020-07-28T07:20:37Z</time>
      </trkpt>
      <trkpt lat="45.36819" lon="4.66043">
        <ele>556</ele>
        <time>2020-07-28T07:20:49Z</time>
      </trkpt>
      <trkpt lat="45.3681" lon="4.66067">
        <ele>555</ele>
        <time>2020-07-28T07:20:52Z</time>
      </trkpt>
      <trkpt lat="45.3678" lon="4.66116">
        <ele>555</ele>
        <time>2020-07-28T07:20:59Z</time>
      </trkpt>
      <trkpt lat="45.3677" lon="4.66126">
        <ele>555</ele>
        <time>2020-07-28T07:21:01Z</time>
      </trkpt>
      <trkpt lat="45.36752" lon="4.6614">
        <ele>553</ele>
        <time>2020-07-28T07:21:05Z</time>
      </trkpt>
      <trkpt lat="45.36744" lon="4.66144">
        <ele>552</ele>
        <time>2020-07-28T07:21:07Z</time>
      </trkpt>
      <trkpt lat="45.36739" lon="4.66142">
        <ele>551</ele>
        <time>2020-07-28T07:21:08Z</time>
      </trkpt>
      <trkpt lat="45.36735" lon="4.66137">
        <ele>551</ele>
        <time>2020-07-28T07:21:09Z</time>
      </trkpt>
      <trkpt lat="45.36679" lon="4.66006">
        <ele>545</ele>
        <time>2020-07-28T07:21:23Z</time>
      </trkpt>
      <trkpt lat="45.3659" lon="4.65911">
        <ele>539</ele>
        <time>2020-07-28T07:21:34Z</time>
      </trkpt>
      <trkpt lat="45.36573" lon="4.659">
        <ele>538</ele>
        <time>2020-07-28T07:21:36Z</time>
      </trkpt>
      <trkpt lat="45.36563" lon="4.65898">
        <ele>537</ele>
        <time>2020-07-28T07:21:37Z</time>
      </trkpt>
      <trkpt lat="45.36545" lon="4.65903">
        <ele>536</ele>
        <time>2020-07-28T07:21:39Z</time>
      </trkpt>
      <trkpt lat="45.36482" lon="4.65951">
        <ele>532</ele>
        <time>2020-07-28T07:21:46Z</time>
      </trkpt>
      <trkpt lat="45.36467" lon="4.65973">
        <ele>531</ele>
        <time>2020-07-28T07:21:48Z</time>
      </trkpt>
      <trkpt lat="45.36445" lon="4.66022">
        <ele>529</ele>
        <time>2020-07-28T07:21:51Z</time>
      </trkpt>
      <trkpt lat="45.36438" lon="4.66031">
        <ele>529</ele>
        <time>2020-07-28T07:21:52Z</time>
      </trkpt>
      <trkpt lat="45.3643" lon="4.66038">
        <ele>528</ele>
        <time>2020-07-28T07:21:53Z</time>
      </trkpt>
      <trkpt lat="45.36421" lon="4.66041">
        <ele>528</ele>
        <time>2020-07-28T07:21:54Z</time>
      </trkpt>
      <trkpt lat="45.36402" lon="4.66039">
        <ele>527</ele>
        <time>2020-07-28T07:21:56Z</time>
      </trkpt>
      <trkpt lat="45.36319" lon="4.66018">
        <ele>522</ele>
        <time>2020-07-28T07:22:04Z</time>
      </trkpt>
      <trkpt lat="45.36299" lon="4.66019">
        <ele>521</ele>
        <time>2020-07-28T07:22:06Z</time>
      </trkpt>
      <trkpt lat="45.36289" lon="4.66023">
        <ele>520</ele>
        <time>2020-07-28T07:22:07Z</time>
      </trkpt>
      <trkpt lat="45.36281" lon="4.6603">
        <ele>520</ele>
        <time>2020-07-28T07:22:08Z</time>
      </trkpt>
      <trkpt lat="45.36275" lon="4.66039">
        <ele>519</ele>
        <time>2020-07-28T07:22:09Z</time>
      </trkpt>
      <trkpt lat="45.36271" lon="4.6605">
        <ele>519</ele>
        <time>2020-07-28T07:22:10Z</time>
      </trkpt>
      <trkpt lat="45.3627" lon="4.66062">
        <ele>518</ele>
        <time>2020-07-28T07:22:11Z</time>
      </trkpt>
      <trkpt lat="45.363" lon="4.66284">
        <ele>508</ele>
        <time>2020-07-28T07:22:27Z</time>
      </trkpt>
      <trkpt lat="45.36311" lon="4.6631">
        <ele>507</ele>
        <time>2020-07-28T07:22:29Z</time>
      </trkpt>
      <trkpt lat="45.36324" lon="4.66332">
        <ele>506</ele>
        <time>2020-07-28T07:22:31Z</time>
      </trkpt>
      <trkpt lat="45.36332" lon="4.66356">
        <ele>505</ele>
        <time>2020-07-28T07:22:33Z</time>
      </trkpt>
      <trkpt lat="45.36333" lon="4.66384">
        <ele>504</ele>
        <time>2020-07-28T07:22:35Z</time>
      </trkpt>
      <trkpt lat="45.36309" lon="4.66561">
        <ele>496</ele>
        <time>2020-07-28T07:22:47Z</time>
      </trkpt>
      <trkpt lat="45.36303" lon="4.66573">
        <ele>496</ele>
        <time>2020-07-28T07:22:48Z</time>
      </trkpt>
      <trkpt lat="45.36296" lon="4.66583">
        <ele>495</ele>
        <time>2020-07-28T07:22:49Z</time>
      </trkpt>
      <trkpt lat="45.36288" lon="4.6659">
        <ele>494</ele>
        <time>2020-07-28T07:22:50Z</time>
      </trkpt>
      <trkpt lat="45.36279" lon="4.66594">
        <ele>494</ele>
        <time>2020-07-28T07:22:51Z</time>
      </trkpt>
      <trkpt lat="45.3624" lon="4.66595">
        <ele>491</ele>
        <time>2020-07-28T07:22:55Z</time>
      </trkpt>
      <trkpt lat="45.36232" lon="4.666">
        <ele>491</ele>
        <time>2020-07-28T07:22:56Z</time>
      </trkpt>
      <trkpt lat="45.36224" lon="4.66608">
        <ele>490</ele>
        <time>2020-07-28T07:22:57Z</time>
      </trkpt>
      <trkpt lat="45.36218" lon="4.66619">
        <ele>490</ele>
        <time>2020-07-28T07:22:58Z</time>
      </trkpt>
      <trkpt lat="45.36215" lon="4.66631">
        <ele>489</ele>
        <time>2020-07-28T07:22:59Z</time>
      </trkpt>
      <trkpt lat="45.36213" lon="4.66644">
        <ele>489</ele>
        <time>2020-07-28T07:23:00Z</time>
      </trkpt>
      <trkpt lat="45.36214" lon="4.66658">
        <ele>488</ele>
        <time>2020-07-28T07:23:01Z</time>
      </trkpt>
      <trkpt lat="45.36232" lon="4.6674">
        <ele>484</ele>
        <time>2020-07-28T07:23:07Z</time>
      </trkpt>
      <trkpt lat="45.36239" lon="4.6683">
        <ele>480</ele>
        <time>2020-07-28T07:23:13Z</time>
      </trkpt>
      <trkpt lat="45.36247" lon="4.66857">
        <ele>479</ele>
        <time>2020-07-28T07:23:15Z</time>
      </trkpt>
      <trkpt lat="45.36386" lon="4.67073">
        <ele>469</ele>
        <time>2020-07-28T07:23:34Z</time>
      </trkpt>
      <trkpt lat="45.36456" lon="4.67158">
        <ele>465</ele>
        <time>2020-07-28T07:23:42Z</time>
      </trkpt>
      <trkpt lat="45.36512" lon="4.67203">
        <ele>461</ele>
        <time>2020-07-28T07:23:48Z</time>
      </trkpt>
      <trkpt lat="45.36519" lon="4.67213">
        <ele>460</ele>
        <time>2020-07-28T07:23:49Z</time>
      </trkpt>
      <trkpt lat="45.36523" lon="4.67225">
        <ele>459</ele>
        <time>2020-07-28T07:23:50Z</time>
      </trkpt>
      <trkpt lat="45.36524" lon="4.67237">
        <ele>459</ele>
        <time>2020-07-28T07:23:51Z</time>
      </trkpt>
      <trkpt lat="45.36523" lon="4.67249">
        <ele>458</ele>
        <time>2020-07-28T07:23:52Z</time>
      </trkpt>
      <trkpt lat="45.36519" lon="4.6726">
        <ele>457</ele>
        <time>2020-07-28T07:23:53Z</time>
      </trkpt>
      <trkpt lat="45.36513" lon="4.67269">
        <ele>457</ele>
        <time>2020-07-28T07:23:54Z</time>
      </trkpt>
      <trkpt lat="45.36505" lon="4.67275">
        <ele>456</ele>
        <time>2020-07-28T07:23:55Z</time>
      </trkpt>
      <trkpt lat="45.36419" lon="4.67301">
        <ele>451</ele>
        <time>2020-07-28T07:24:04Z</time>
      </trkpt>
      <trkpt lat="45.36403" lon="4.67319">
        <ele>450</ele>
        <time>2020-07-28T07:24:06Z</time>
      </trkpt>
      <trkpt lat="45.36392" lon="4.67344">
        <ele>448</ele>
        <time>2020-07-28T07:24:08Z</time>
      </trkpt>
      <trkpt lat="45.36284" lon="4.67724">
        <ele>433</ele>
        <time>2020-07-28T07:24:34Z</time>
      </trkpt>
      <trkpt lat="45.36282" lon="4.68088">
        <ele>420</ele>
        <time>2020-07-28T07:25:04Z</time>
      </trkpt>
      <trkpt lat="45.36265" lon="4.68393">
        <ele>407</ele>
        <time>2020-07-28T07:25:30Z</time>
      </trkpt>
      <trkpt lat="45.36268" lon="4.6842">
        <ele>406</ele>
        <time>2020-07-28T07:25:34Z</time>
      </trkpt>
      <trkpt lat="45.36286" lon="4.68458">
        <ele>405</ele>
        <time>2020-07-28T07:25:43Z</time>
      </trkpt>
      <trkpt lat="45.36284" lon="4.68476">
        <ele>403</ele>
        <time>2020-07-28T07:25:47Z</time>
      </trkpt>
      <trkpt lat="45.3628" lon="4.68486">
        <ele>403</ele>
        <time>2020-07-28T07:25:49Z</time>
      </trkpt>
      <trkpt lat="45.36258" lon="4.68511">
        <ele>402</ele>
        <time>2020-07-28T07:25:56Z</time>
      </trkpt>
      <trkpt lat="45.36253" lon="4.68515">
        <ele>402</ele>
        <time>2020-07-28T07:25:59Z</time>
      </trkpt>
      <trkpt lat="45.36247" lon="4.68515">
        <ele>401</ele>
        <time>2020-07-28T07:26:08Z</time>
      </trkpt>
      <trkpt lat="45.3622" lon="4.68495">
        <ele>401</ele>
        <time>2020-07-28T07:26:17Z</time>
      </trkpt>
      <trkpt lat="45.36112" lon="4.6852">
        <ele>399</ele>
        <time>2020-07-28T07:26:43Z</time>
      </trkpt>
      <trkpt lat="45.36047" lon="4.6851">
        <ele>401</ele>
        <time>2020-07-28T07:26:56Z</time>
      </trkpt>
      <trkpt lat="45.35921" lon="4.68449">
        <ele>402</ele>
        <time>2020-07-28T07:27:22Z</time>
      </trkpt>
      <trkpt lat="45.35886" lon="4.68444">
        <ele>402</ele>
        <time>2020-07-28T07:27:28Z</time>
      </trkpt>
      <trkpt lat="45.35863" lon="4.68432">
        <ele>402</ele>
        <time>2020-07-28T07:27:32Z</time>
      </trkpt>
      <trkpt lat="45.35826" lon="4.68393">
        <ele>403</ele>
        <time>2020-07-28T07:27:40Z</time>
      </trkpt>
      <trkpt lat="45.3566" lon="4.68309">
        <ele>403</ele>
        <time>2020-07-28T07:28:10Z</time>
      </trkpt>
      <trkpt lat="45.35535" lon="4.68234">
        <ele>404</ele>
        <time>2020-07-28T07:28:33Z</time>
      </trkpt>
      <trkpt lat="45.35367" lon="4.68184">
        <ele>403</ele>
        <time>2020-07-28T07:28:59Z</time>
      </trkpt>
      <trkpt lat="45.35355" lon="4.68174">
        <ele>403</ele>
        <time>2020-07-28T07:29:01Z</time>
      </trkpt>
      <trkpt lat="45.35187" lon="4.67991">
        <ele>396</ele>
        <time>2020-07-28T07:29:26Z</time>
      </trkpt>
      <trkpt lat="45.35167" lon="4.67985">
        <ele>396</ele>
        <time>2020-07-28T07:29:28Z</time>
      </trkpt>
      <trkpt lat="45.35129" lon="4.67995">
        <ele>395</ele>
        <time>2020-07-28T07:29:32Z</time>
      </trkpt>
      <trkpt lat="45.34878" lon="4.68122">
        <ele>384</ele>
        <time>2020-07-28T07:29:59Z</time>
      </trkpt>
      <trkpt lat="45.34705" lon="4.68298">
        <ele>371</ele>
        <time>2020-07-28T07:30:19Z</time>
      </trkpt>
      <trkpt lat="45.3463" lon="4.68308">
        <ele>367</ele>
        <time>2020-07-28T07:30:27Z</time>
      </trkpt>
      <trkpt lat="45.34623" lon="4.6831">
        <ele>367</ele>
        <time>2020-07-28T07:30:28Z</time>
      </trkpt>
      <trkpt lat="45.34619" lon="4.68317">
        <ele>368</ele>
        <time>2020-07-28T07:30:29Z</time>
      </trkpt>
      <trkpt lat="45.34616" lon="4.68325">
        <ele>368</ele>
        <time>2020-07-28T07:30:30Z</time>
      </trkpt>
      <trkpt lat="45.34613" lon="4.68377">
        <ele>369</ele>
        <time>2020-07-28T07:30:37Z</time>
      </trkpt>
      <trkpt lat="45.34563" lon="4.68535">
        <ele>375</ele>
        <time>2020-07-28T07:31:07Z</time>
      </trkpt>
      <trkpt lat="45.34537" lon="4.68619">
        <ele>378</ele>
        <time>2020-07-28T07:31:24Z</time>
      </trkpt>
      <trkpt lat="45.34526" lon="4.68661">
        <ele>383</ele>
        <time>2020-07-28T07:31:32Z</time>
      </trkpt>
      <trkpt lat="45.34513" lon="4.68694">
        <ele>384</ele>
        <time>2020-07-28T07:31:39Z</time>
      </trkpt>
      <trkpt lat="45.34512" lon="4.68704">
        <ele>384</ele>
        <time>2020-07-28T07:31:41Z</time>
      </trkpt>
      <trkpt lat="45.3451" lon="4.68814">
        <ele>388</ele>
        <time>2020-07-28T07:32:03Z</time>
      </trkpt>
      <trkpt lat="45.34506" lon="4.68834">
        <ele>388</ele>
        <time>2020-07-28T07:32:07Z</time>
      </trkpt>
      <trkpt lat="45.345" lon="4.68848">
        <ele>388</ele>
        <time>2020-07-28T07:32:10Z</time>
      </trkpt>
      <trkpt lat="45.34491" lon="4.68859">
        <ele>388</ele>
        <time>2020-07-28T07:32:13Z</time>
      </trkpt>
      <trkpt lat="45.34472" lon="4.68873">
        <ele>388</ele>
        <time>2020-07-28T07:32:18Z</time>
      </trkpt>
      <trkpt lat="45.34409" lon="4.68917">
        <ele>385</ele>
        <time>2020-07-28T07:32:30Z</time>
      </trkpt>
      <trkpt lat="45.34394" lon="4.6892">
        <ele>384</ele>
        <time>2020-07-28T07:32:32Z</time>
      </trkpt>
      <trkpt lat="45.34378" lon="4.68918">
        <ele>384</ele>
        <time>2020-07-28T07:32:34Z</time>
      </trkpt>
      <trkpt lat="45.34304" lon="4.68871">
        <ele>379</ele>
        <time>2020-07-28T07:32:43Z</time>
      </trkpt>
      <trkpt lat="45.34288" lon="4.68855">
        <ele>378</ele>
        <time>2020-07-28T07:32:45Z</time>
      </trkpt>
      <trkpt lat="45.34276" lon="4.68832">
        <ele>377</ele>
        <time>2020-07-28T07:32:47Z</time>
      </trkpt>
      <trkpt lat="45.34269" lon="4.68805">
        <ele>376</ele>
        <time>2020-07-28T07:32:49Z</time>
      </trkpt>
      <trkpt lat="45.34262" lon="4.68764">
        <ele>375</ele>
        <time>2020-07-28T07:32:52Z</time>
      </trkpt>
      <trkpt lat="45.34252" lon="4.6874">
        <ele>373</ele>
        <time>2020-07-28T07:32:54Z</time>
      </trkpt>
      <trkpt lat="45.34245" lon="4.68731">
        <ele>373</ele>
        <time>2020-07-28T07:32:55Z</time>
      </trkpt>
      <trkpt lat="45.34237" lon="4.68724">
        <ele>372</ele>
        <time>2020-07-28T07:32:56Z</time>
      </trkpt>
      <trkpt lat="45.34229" lon="4.6872">
        <ele>372</ele>
        <time>2020-07-28T07:32:57Z</time>
      </trkpt>
      <trkpt lat="45.34213" lon="4.6872">
        <ele>372</ele>
        <time>2020-07-28T07:32:59Z</time>
      </trkpt>
      <trkpt lat="45.34206" lon="4.68723">
        <ele>372</ele>
        <time>2020-07-28T07:33:00Z</time>
      </trkpt>
      <trkpt lat="45.34201" lon="4.68728">
        <ele>372</ele>
        <time>2020-07-28T07:33:01Z</time>
      </trkpt>
      <trkpt lat="45.34196" lon="4.68733">
        <ele>372</ele>
        <time>2020-07-28T07:33:02Z</time>
      </trkpt>
      <trkpt lat="45.34194" lon="4.6875">
        <ele>372</ele>
        <time>2020-07-28T07:33:04Z</time>
      </trkpt>
      <trkpt lat="45.34196" lon="4.68839">
        <ele>370</ele>
        <time>2020-07-28T07:33:13Z</time>
      </trkpt>
      <trkpt lat="45.34211" lon="4.68903">
        <ele>369</ele>
        <time>2020-07-28T07:33:20Z</time>
      </trkpt>
      <trkpt lat="45.34296" lon="4.69146">
        <ele>371</ele>
        <time>2020-07-28T07:33:50Z</time>
      </trkpt>
      <trkpt lat="45.34304" lon="4.69178">
        <ele>371</ele>
        <time>2020-07-28T07:33:54Z</time>
      </trkpt>
      <trkpt lat="45.34309" lon="4.69236">
        <ele>372</ele>
        <time>2020-07-28T07:34:01Z</time>
      </trkpt>
      <trkpt lat="45.34307" lon="4.69499">
        <ele>374</ele>
        <time>2020-07-28T07:34:31Z</time>
      </trkpt>
      <trkpt lat="45.3431" lon="4.69586">
        <ele>374</ele>
        <time>2020-07-28T07:34:41Z</time>
      </trkpt>
      <trkpt lat="45.34295" lon="4.69701">
        <ele>376</ele>
        <time>2020-07-28T07:34:55Z</time>
      </trkpt>
      <trkpt lat="45.34296" lon="4.69791">
        <ele>378</ele>
        <time>2020-07-28T07:35:06Z</time>
      </trkpt>
      <trkpt lat="45.34301" lon="4.69814">
        <ele>378</ele>
        <time>2020-07-28T07:35:09Z</time>
      </trkpt>
      <trkpt lat="45.34341" lon="4.69914">
        <ele>381</ele>
        <time>2020-07-28T07:35:24Z</time>
      </trkpt>
      <trkpt lat="45.34366" lon="4.70086">
        <ele>385</ele>
        <time>2020-07-28T07:35:48Z</time>
      </trkpt>
      <trkpt lat="45.34375" lon="4.70105">
        <ele>385</ele>
        <time>2020-07-28T07:35:51Z</time>
      </trkpt>
      <trkpt lat="45.34383" lon="4.70115">
        <ele>385</ele>
        <time>2020-07-28T07:35:53Z</time>
      </trkpt>
      <trkpt lat="45.344" lon="4.70133">
        <ele>386</ele>
        <time>2020-07-28T07:35:57Z</time>
      </trkpt>
      <trkpt lat="45.34408" lon="4.70152">
        <ele>386</ele>
        <time>2020-07-28T07:36:00Z</time>
      </trkpt>
      <trkpt lat="45.34419" lon="4.70202">
        <ele>388</ele>
        <time>2020-07-28T07:36:07Z</time>
      </trkpt>
      <trkpt lat="45.34443" lon="4.70355">
        <ele>390</ele>
        <time>2020-07-28T07:36:27Z</time>
      </trkpt>
      <trkpt lat="45.34451" lon="4.70377">
        <ele>390</ele>
        <time>2020-07-28T07:36:30Z</time>
      </trkpt>
      <trkpt lat="45.3449" lon="4.70457">
        <ele>391</ele>
        <time>2020-07-28T07:36:42Z</time>
      </trkpt>
      <trkpt lat="45.34517" lon="4.7062">
        <ele>393</ele>
        <time>2020-07-28T07:37:03Z</time>
      </trkpt>
      <trkpt lat="45.3453" lon="4.70803">
        <ele>396</ele>
        <time>2020-07-28T07:37:26Z</time>
      </trkpt>
      <trkpt lat="45.34549" lon="4.7086">
        <ele>395</ele>
        <time>2020-07-28T07:37:34Z</time>
      </trkpt>
      <trkpt lat="45.34596" lon="4.70963">
        <ele>393</ele>
        <time>2020-07-28T07:37:49Z</time>
      </trkpt>
      <trkpt lat="45.34606" lon="4.71009">
        <ele>393</ele>
        <time>2020-07-28T07:37:55Z</time>
      </trkpt>
      <trkpt lat="45.34607" lon="4.71034">
        <ele>392</ele>
        <time>2020-07-28T07:37:58Z</time>
      </trkpt>
      <trkpt lat="45.34601" lon="4.71067">
        <ele>392</ele>
        <time>2020-07-28T07:38:02Z</time>
      </trkpt>
      <trkpt lat="45.34585" lon="4.71122">
        <ele>391</ele>
        <time>2020-07-28T07:38:09Z</time>
      </trkpt>
      <trkpt lat="45.34496" lon="4.71371">
        <ele>385</ele>
        <time>2020-07-28T07:38:39Z</time>
      </trkpt>
      <trkpt lat="45.34424" lon="4.71485">
        <ele>384</ele>
        <time>2020-07-28T07:38:55Z</time>
      </trkpt>
      <trkpt lat="45.34399" lon="4.71508">
        <ele>383</ele>
        <time>2020-07-28T07:38:59Z</time>
      </trkpt>
      <trkpt lat="45.34208" lon="4.71615">
        <ele>374</ele>
        <time>2020-07-28T07:39:22Z</time>
      </trkpt>
      <trkpt lat="45.33969" lon="4.7187">
        <ele>362</ele>
        <time>2020-07-28T07:39:52Z</time>
      </trkpt>
      <trkpt lat="45.33926" lon="4.71924">
        <ele>360</ele>
        <time>2020-07-28T07:39:58Z</time>
      </trkpt>
      <trkpt lat="45.33763" lon="4.72214">
        <ele>355</ele>
        <time>2020-07-28T07:40:28Z</time>
      </trkpt>
      <trkpt lat="45.33638" lon="4.72437">
        <ele>357</ele>
        <time>2020-07-28T07:40:58Z</time>
      </trkpt>
      <trkpt lat="45.33518" lon="4.72653">
        <ele>357</ele>
        <time>2020-07-28T07:41:28Z</time>
      </trkpt>
      <trkpt lat="45.33381" lon="4.72885">
        <ele>355</ele>
        <time>2020-07-28T07:41:58Z</time>
      </trkpt>
      <trkpt lat="45.33363" lon="4.72909">
        <ele>354</ele>
        <time>2020-07-28T07:42:01Z</time>
      </trkpt>
      <trkpt lat="45.33332" lon="4.72932">
        <ele>353</ele>
        <time>2020-07-28T07:42:05Z</time>
      </trkpt>
      <trkpt lat="45.33125" lon="4.73025">
        <ele>343</ele>
        <time>2020-07-28T07:42:27Z</time>
      </trkpt>
      <trkpt lat="45.3311" lon="4.73042">
        <ele>343</ele>
        <time>2020-07-28T07:42:29Z</time>
      </trkpt>
      <trkpt lat="45.33105" lon="4.73053">
        <ele>344</ele>
        <time>2020-07-28T07:42:30Z</time>
      </trkpt>
      <trkpt lat="45.33097" lon="4.73096">
        <ele>345</ele>
        <time>2020-07-28T07:42:34Z</time>
      </trkpt>
      <trkpt lat="45.33079" lon="4.73277">
        <ele>346</ele>
        <time>2020-07-28T07:42:54Z</time>
      </trkpt>
      <trkpt lat="45.33072" lon="4.73297">
        <ele>347</ele>
        <time>2020-07-28T07:42:57Z</time>
      </trkpt>
      <trkpt lat="45.33066" lon="4.73307">
        <ele>347</ele>
        <time>2020-07-28T07:42:59Z</time>
      </trkpt>
      <trkpt lat="45.33049" lon="4.73324">
        <ele>349</ele>
        <time>2020-07-28T07:43:04Z</time>
      </trkpt>
      <trkpt lat="45.33031" lon="4.73333">
        <ele>349</ele>
        <time>2020-07-28T07:43:09Z</time>
      </trkpt>
      <trkpt lat="45.3302" lon="4.73336">
        <ele>350</ele>
        <time>2020-07-28T07:43:12Z</time>
      </trkpt>
      <trkpt lat="45.32911" lon="4.7334">
        <ele>356</ele>
        <time>2020-07-28T07:43:42Z</time>
      </trkpt>
      <trkpt lat="45.32809" lon="4.73348">
        <ele>363</ele>
        <time>2020-07-28T07:44:12Z</time>
      </trkpt>
      <trkpt lat="45.32702" lon="4.73359">
        <ele>369</ele>
        <time>2020-07-28T07:44:43Z</time>
      </trkpt>
      <trkpt lat="45.32594" lon="4.73363">
        <ele>376</ele>
        <time>2020-07-28T07:45:14Z</time>
      </trkpt>
      <trkpt lat="45.32487" lon="4.7335">
        <ele>381</ele>
        <time>2020-07-28T07:45:42Z</time>
      </trkpt>
      <trkpt lat="45.32344" lon="4.73257">
        <ele>382</ele>
        <time>2020-07-28T07:46:12Z</time>
      </trkpt>
      <trkpt lat="45.32291" lon="4.73242">
        <ele>382</ele>
        <time>2020-07-28T07:46:22Z</time>
      </trkpt>
      <trkpt lat="45.32162" lon="4.73231">
        <ele>386</ele>
        <time>2020-07-28T07:46:48Z</time>
      </trkpt>
      <trkpt lat="45.32055" lon="4.73167">
        <ele>386</ele>
        <time>2020-07-28T07:47:10Z</time>
      </trkpt>
      <trkpt lat="45.31898" lon="4.73151">
        <ele>389</ele>
        <time>2020-07-28T07:47:37Z</time>
      </trkpt>
      <trkpt lat="45.31832" lon="4.73104">
        <ele>392</ele>
        <time>2020-07-28T07:47:54Z</time>
      </trkpt>
      <trkpt lat="45.31817" lon="4.73087">
        <ele>393</ele>
        <time>2020-07-28T07:47:59Z</time>
      </trkpt>
      <trkpt lat="45.31806" lon="4.73065">
        <ele>394</ele>
        <time>2020-07-28T07:48:04Z</time>
      </trkpt>
      <trkpt lat="45.31764" lon="4.72932">
        <ele>399</ele>
        <time>2020-07-28T07:48:33Z</time>
      </trkpt>
      <trkpt lat="45.31755" lon="4.72918">
        <ele>400</ele>
        <time>2020-07-28T07:48:37Z</time>
      </trkpt>
      <trkpt lat="45.31745" lon="4.72908">
        <ele>400</ele>
        <time>2020-07-28T07:48:41Z</time>
      </trkpt>
      <trkpt lat="45.3174" lon="4.72905">
        <ele>400</ele>
        <time>2020-07-28T07:48:43Z</time>
      </trkpt>
      <trkpt lat="45.31728" lon="4.72895">
        <ele>400</ele>
        <time>2020-07-28T07:48:49Z</time>
      </trkpt>
      <trkpt lat="45.31716" lon="4.72876">
        <ele>400</ele>
        <time>2020-07-28T07:48:56Z</time>
      </trkpt>
      <trkpt lat="45.31687" lon="4.72846">
        <ele>400</ele>
        <time>2020-07-28T07:49:16Z</time>
      </trkpt>
      <trkpt lat="45.31681" lon="4.72842">
        <ele>399</ele>
        <time>2020-07-28T07:49:20Z</time>
      </trkpt>
      <trkpt lat="45.31676" lon="4.7284">
        <ele>399</ele>
        <time>2020-07-28T07:49:22Z</time>
      </trkpt>
      <trkpt lat="45.31662" lon="4.72832">
        <ele>398</ele>
        <time>2020-07-28T07:49:31Z</time>
      </trkpt>
      <trkpt lat="45.31657" lon="4.72829">
        <ele>398</ele>
        <time>2020-07-28T07:49:37Z</time>
      </trkpt>
      <trkpt lat="45.31651" lon="4.7283">
        <ele>398</ele>
        <time>2020-07-28T07:49:40Z</time>
      </trkpt>
      <trkpt lat="45.31542" lon="4.72815">
        <ele>394</ele>
        <time>2020-07-28T07:50:10Z</time>
      </trkpt>
      <trkpt lat="45.31513" lon="4.72808">
        <ele>392</ele>
        <time>2020-07-28T07:50:15Z</time>
      </trkpt>
      <trkpt lat="45.3128" lon="4.72787">
        <ele>387</ele>
        <time>2020-07-28T07:50:45Z</time>
      </trkpt>
      <trkpt lat="45.31086" lon="4.7276">
        <ele>383</ele>
        <time>2020-07-28T07:51:12Z</time>
      </trkpt>
      <trkpt lat="45.31078" lon="4.72763">
        <ele>382</ele>
        <time>2020-07-28T07:51:13Z</time>
      </trkpt>
      <trkpt lat="45.31071" lon="4.72768">
        <ele>382</ele>
        <time>2020-07-28T07:51:14Z</time>
      </trkpt>
      <trkpt lat="45.30959" lon="4.72924">
        <ele>377</ele>
        <time>2020-07-28T07:51:33Z</time>
      </trkpt>
      <trkpt lat="45.30933" lon="4.72939">
        <ele>377</ele>
        <time>2020-07-28T07:51:37Z</time>
      </trkpt>
      <trkpt lat="45.30872" lon="4.72947">
        <ele>376</ele>
        <time>2020-07-28T07:51:47Z</time>
      </trkpt>
      <trkpt lat="45.30843" lon="4.72945">
        <ele>376</ele>
        <time>2020-07-28T07:51:54Z</time>
      </trkpt>
      <trkpt lat="45.30844" lon="4.72943">
        <ele>375</ele>
        <time>2020-07-28T07:53:40Z</time>
      </trkpt>
      <trkpt lat="45.30839" lon="4.72944">
        <ele>375</ele>
        <time>2020-07-28T07:53:43Z</time>
      </trkpt>
      <trkpt lat="45.30826" lon="4.72942">
        <ele>375</ele>
        <time>2020-07-28T07:53:49Z</time>
      </trkpt>
      <trkpt lat="45.30808" lon="4.72944">
        <ele>375</ele>
        <time>2020-07-28T07:53:55Z</time>
      </trkpt>
      <trkpt lat="45.30794" lon="4.72941">
        <ele>374</ele>
        <time>2020-07-28T07:53:58Z</time>
      </trkpt>
      <trkpt lat="45.30765" lon="4.72914">
        <ele>373</ele>
        <time>2020-07-28T07:54:05Z</time>
      </trkpt>
      <trkpt lat="45.30741" lon="4.72881">
        <ele>371</ele>
        <time>2020-07-28T07:54:10Z</time>
      </trkpt>
      <trkpt lat="45.30726" lon="4.72874">
        <ele>371</ele>
        <time>2020-07-28T07:54:12Z</time>
      </trkpt>
      <trkpt lat="45.30711" lon="4.72876">
        <ele>371</ele>
        <time>2020-07-28T07:54:14Z</time>
      </trkpt>
      <trkpt lat="45.30698" lon="4.72882">
        <ele>371</ele>
        <time>2020-07-28T07:54:16Z</time>
      </trkpt>
      <trkpt lat="45.30688" lon="4.72895">
        <ele>371</ele>
        <time>2020-07-28T07:54:18Z</time>
      </trkpt>
      <trkpt lat="45.30679" lon="4.72917">
        <ele>371</ele>
        <time>2020-07-28T07:54:21Z</time>
      </trkpt>
      <trkpt lat="45.30606" lon="4.73137">
        <ele>371</ele>
        <time>2020-07-28T07:54:48Z</time>
      </trkpt>
      <trkpt lat="45.30601" lon="4.73143">
        <ele>370</ele>
        <time>2020-07-28T07:54:49Z</time>
      </trkpt>
      <trkpt lat="45.30596" lon="4.73146">
        <ele>371</ele>
        <time>2020-07-28T07:54:50Z</time>
      </trkpt>
      <trkpt lat="45.3059" lon="4.73145">
        <ele>371</ele>
        <time>2020-07-28T07:54:51Z</time>
      </trkpt>
      <trkpt lat="45.30585" lon="4.73141">
        <ele>371</ele>
        <time>2020-07-28T07:54:52Z</time>
      </trkpt>
      <trkpt lat="45.30496" lon="4.73029">
        <ele>377</ele>
        <time>2020-07-28T07:55:18Z</time>
      </trkpt>
      <trkpt lat="45.30381" lon="4.72952">
        <ele>382</ele>
        <time>2020-07-28T07:55:48Z</time>
      </trkpt>
      <trkpt lat="45.30354" lon="4.72937">
        <ele>383</ele>
        <time>2020-07-28T07:55:55Z</time>
      </trkpt>
      <trkpt lat="45.30287" lon="4.72927">
        <ele>385</ele>
        <time>2020-07-28T07:56:11Z</time>
      </trkpt>
      <trkpt lat="45.30198" lon="4.72917">
        <ele>386</ele>
        <time>2020-07-28T07:56:31Z</time>
      </trkpt>
      <trkpt lat="45.30126" lon="4.72882">
        <ele>389</ele>
        <time>2020-07-28T07:56:50Z</time>
      </trkpt>
      <trkpt lat="45.30033" lon="4.72814">
        <ele>394</ele>
        <time>2020-07-28T07:57:20Z</time>
      </trkpt>
      <trkpt lat="45.29993" lon="4.72775">
        <ele>399</ele>
        <time>2020-07-28T07:57:36Z</time>
      </trkpt>
      <trkpt lat="45.29985" lon="4.72774">
        <ele>399</ele>
        <time>2020-07-28T07:57:38Z</time>
      </trkpt>
      <trkpt lat="45.29971" lon="4.72776">
        <ele>399</ele>
        <time>2020-07-28T07:57:42Z</time>
      </trkpt>
      <trkpt lat="45.2987" lon="4.72827">
        <ele>400</ele>
        <time>2020-07-28T07:58:09Z</time>
      </trkpt>
      <trkpt lat="45.29806" lon="4.72844">
        <ele>401</ele>
        <time>2020-07-28T07:58:22Z</time>
      </trkpt>
      <trkpt lat="45.29748" lon="4.72886">
        <ele>401</ele>
        <time>2020-07-28T07:58:34Z</time>
      </trkpt>
      <trkpt lat="45.29633" lon="4.72979">
        <ele>400</ele>
        <time>2020-07-28T07:58:56Z</time>
      </trkpt>
      <trkpt lat="45.29584" lon="4.72996">
        <ele>398</ele>
        <time>2020-07-28T07:59:03Z</time>
      </trkpt>
      <trkpt lat="45.2941" lon="4.73022">
        <ele>395</ele>
        <time>2020-07-28T07:59:26Z</time>
      </trkpt>
      <trkpt lat="45.29379" lon="4.73011">
        <ele>396</ele>
        <time>2020-07-28T07:59:31Z</time>
      </trkpt>
      <trkpt lat="45.29145" lon="4.72891">
        <ele>387</ele>
        <time>2020-07-28T08:00:01Z</time>
      </trkpt>
      <trkpt lat="45.29079" lon="4.72857">
        <ele>384</ele>
        <time>2020-07-28T08:00:09Z</time>
      </trkpt>
      <trkpt lat="45.29067" lon="4.72847">
        <ele>383</ele>
        <time>2020-07-28T08:00:11Z</time>
      </trkpt>
      <trkpt lat="45.29061" lon="4.72846">
        <ele>383</ele>
        <time>2020-07-28T08:00:12Z</time>
      </trkpt>
      <trkpt lat="45.29056" lon="4.7285">
        <ele>383</ele>
        <time>2020-07-28T08:00:13Z</time>
      </trkpt>
      <trkpt lat="45.2904" lon="4.72866">
        <ele>383</ele>
        <time>2020-07-28T08:00:16Z</time>
      </trkpt>
      <trkpt lat="45.29004" lon="4.72887">
        <ele>381</ele>
        <time>2020-07-28T08:00:21Z</time>
      </trkpt>
      <trkpt lat="45.28874" lon="4.72915">
        <ele>376</ele>
        <time>2020-07-28T08:00:38Z</time>
      </trkpt>
      <trkpt lat="45.28833" lon="4.72949">
        <ele>372</ele>
        <time>2020-07-28T08:00:47Z</time>
      </trkpt>
      <trkpt lat="45.28827" lon="4.72951">
        <ele>372</ele>
        <time>2020-07-28T08:00:50Z</time>
      </trkpt>
      <trkpt lat="45.28815" lon="4.72936">
        <ele>372</ele>
        <time>2020-07-28T08:00:54Z</time>
      </trkpt>
      <trkpt lat="45.28792" lon="4.72913">
        <ele>373</ele>
        <time>2020-07-28T08:01:00Z</time>
      </trkpt>
      <trkpt lat="45.28696" lon="4.72852">
        <ele>375</ele>
        <time>2020-07-28T08:01:24Z</time>
      </trkpt>
      <trkpt lat="45.28693" lon="4.7285">
        <ele>376</ele>
        <time>2020-07-28T08:01:25Z</time>
      </trkpt>
      <trkpt lat="45.28687" lon="4.72855">
        <ele>376</ele>
        <time>2020-07-28T08:01:27Z</time>
      </trkpt>
      <trkpt lat="45.28684" lon="4.72864">
        <ele>376</ele>
        <time>2020-07-28T08:01:29Z</time>
      </trkpt>
      <trkpt lat="45.28681" lon="4.72873">
        <ele>376</ele>
        <time>2020-07-28T08:01:31Z</time>
      </trkpt>
      <trkpt lat="45.28685" lon="4.72935">
        <ele>378</ele>
        <time>2020-07-28T08:01:42Z</time>
      </trkpt>
      <trkpt lat="45.28683" lon="4.72946">
        <ele>378</ele>
        <time>2020-07-28T08:01:44Z</time>
      </trkpt>
      <trkpt lat="45.28661" lon="4.72987">
        <ele>378</ele>
        <time>2020-07-28T08:01:52Z</time>
      </trkpt>
      <trkpt lat="45.28657" lon="4.73006">
        <ele>378</ele>
        <time>2020-07-28T08:01:55Z</time>
      </trkpt>
      <trkpt lat="45.28654" lon="4.73085">
        <ele>376</ele>
        <time>2020-07-28T08:02:05Z</time>
      </trkpt>
      <trkpt lat="45.28634" lon="4.73155">
        <ele>377</ele>
        <time>2020-07-28T08:02:13Z</time>
      </trkpt>
      <trkpt lat="45.2862" lon="4.73184">
        <ele>379</ele>
        <time>2020-07-28T08:02:17Z</time>
      </trkpt>
      <trkpt lat="45.28571" lon="4.73267">
        <ele>376</ele>
        <time>2020-07-28T08:02:29Z</time>
      </trkpt>
      <trkpt lat="45.28512" lon="4.73449">
        <ele>383</ele>
        <time>2020-07-28T08:02:57Z</time>
      </trkpt>
      <trkpt lat="45.28438" lon="4.73599">
        <ele>386</ele>
        <time>2020-07-28T08:03:27Z</time>
      </trkpt>
      <trkpt lat="45.28433" lon="4.73609">
        <ele>386</ele>
        <time>2020-07-28T08:03:29Z</time>
      </trkpt>
      <trkpt lat="45.28351" lon="4.73727">
        <ele>389</ele>
        <time>2020-07-28T08:03:59Z</time>
      </trkpt>
      <trkpt lat="45.28263" lon="4.73851">
        <ele>391</ele>
        <time>2020-07-28T08:04:28Z</time>
      </trkpt>
      <trkpt lat="45.28227" lon="4.73876">
        <ele>392</ele>
        <time>2020-07-28T08:04:37Z</time>
      </trkpt>
      <trkpt lat="45.28101" lon="4.73931">
        <ele>393</ele>
        <time>2020-07-28T08:05:04Z</time>
      </trkpt>
      <trkpt lat="45.27925" lon="4.73963">
        <ele>390</ele>
        <time>2020-07-28T08:05:34Z</time>
      </trkpt>
      <trkpt lat="45.27753" lon="4.73983">
        <ele>391</ele>
        <time>2020-07-28T08:06:04Z</time>
      </trkpt>
      <trkpt lat="45.27586" lon="4.74034">
        <ele>392</ele>
        <time>2020-07-28T08:06:34Z</time>
      </trkpt>
      <trkpt lat="45.27551" lon="4.74029">
        <ele>392</ele>
        <time>2020-07-28T08:06:40Z</time>
      </trkpt>
      <trkpt lat="45.27336" lon="4.73966">
        <ele>385</ele>
        <time>2020-07-28T08:07:10Z</time>
      </trkpt>
      <trkpt lat="45.27093" lon="4.73919">
        <ele>379</ele>
        <time>2020-07-28T08:07:40Z</time>
      </trkpt>
      <trkpt lat="45.27056" lon="4.73913">
        <ele>377</ele>
        <time>2020-07-28T08:07:44Z</time>
      </trkpt>
      <trkpt lat="45.27037" lon="4.73917">
        <ele>376</ele>
        <time>2020-07-28T08:07:47Z</time>
      </trkpt>
      <trkpt lat="45.27009" lon="4.73932">
        <ele>375</ele>
        <time>2020-07-28T08:07:50Z</time>
      </trkpt>
      <trkpt lat="45.2697" lon="4.73959">
        <ele>373</ele>
        <time>2020-07-28T08:07:55Z</time>
      </trkpt>
      <trkpt lat="45.26944" lon="4.73967">
        <ele>372</ele>
        <time>2020-07-28T08:07:59Z</time>
      </trkpt>
      <trkpt lat="45.26807" lon="4.73959">
        <ele>368</ele>
        <time>2020-07-28T08:08:21Z</time>
      </trkpt>
      <trkpt lat="45.268" lon="4.73961">
        <ele>368</ele>
        <time>2020-07-28T08:08:22Z</time>
      </trkpt>
      <trkpt lat="45.26794" lon="4.73965">
        <ele>368</ele>
        <time>2020-07-28T08:08:23Z</time>
      </trkpt>
      <trkpt lat="45.26789" lon="4.73972">
        <ele>368</ele>
        <time>2020-07-28T08:08:24Z</time>
      </trkpt>
      <trkpt lat="45.26786" lon="4.7398">
        <ele>368</ele>
        <time>2020-07-28T08:08:25Z</time>
      </trkpt>
      <trkpt lat="45.26734" lon="4.7423">
        <ele>368</ele>
        <time>2020-07-28T08:08:55Z</time>
      </trkpt>
      <trkpt lat="45.26713" lon="4.74325">
        <ele>368</ele>
        <time>2020-07-28T08:09:07Z</time>
      </trkpt>
      <trkpt lat="45.26689" lon="4.74375">
        <ele>367</ele>
        <time>2020-07-28T08:09:14Z</time>
      </trkpt>
      <trkpt lat="45.2662" lon="4.74476">
        <ele>366</ele>
        <time>2020-07-28T08:09:28Z</time>
      </trkpt>
      <trkpt lat="45.26505" lon="4.7477">
        <ele>361</ele>
        <time>2020-07-28T08:09:58Z</time>
      </trkpt>
      <trkpt lat="45.26446" lon="4.74948">
        <ele>360</ele>
        <time>2020-07-28T08:10:17Z</time>
      </trkpt>
      <trkpt lat="45.26391" lon="4.752">
        <ele>362</ele>
        <time>2020-07-28T08:10:47Z</time>
      </trkpt>
      <trkpt lat="45.26342" lon="4.75457">
        <ele>361</ele>
        <time>2020-07-28T08:11:17Z</time>
      </trkpt>
      <trkpt lat="45.2632" lon="4.75569">
        <ele>361</ele>
        <time>2020-07-28T08:11:29Z</time>
      </trkpt>
      <trkpt lat="45.26298" lon="4.7563">
        <ele>362</ele>
        <time>2020-07-28T08:11:37Z</time>
      </trkpt>
      <trkpt lat="45.2629" lon="4.75705">
        <ele>361</ele>
        <time>2020-07-28T08:11:45Z</time>
      </trkpt>
      <trkpt lat="45.26291" lon="4.75743">
        <ele>361</ele>
        <time>2020-07-28T08:11:49Z</time>
      </trkpt>
      <trkpt lat="45.26298" lon="4.75771">
        <ele>361</ele>
        <time>2020-07-28T08:11:52Z</time>
      </trkpt>
      <trkpt lat="45.26318" lon="4.75821">
        <ele>358</ele>
        <time>2020-07-28T08:11:57Z</time>
      </trkpt>
      <trkpt lat="45.2633" lon="4.75838">
        <ele>357</ele>
        <time>2020-07-28T08:11:59Z</time>
      </trkpt>
      <trkpt lat="45.26354" lon="4.75855">
        <ele>356</ele>
        <time>2020-07-28T08:12:02Z</time>
      </trkpt>
      <trkpt lat="45.26405" lon="4.75884">
        <ele>357</ele>
        <time>2020-07-28T08:12:09Z</time>
      </trkpt>
      <trkpt lat="45.26421" lon="4.75904">
        <ele>357</ele>
        <time>2020-07-28T08:12:12Z</time>
      </trkpt>
      <trkpt lat="45.26429" lon="4.75919">
        <ele>357</ele>
        <time>2020-07-28T08:12:14Z</time>
      </trkpt>
      <trkpt lat="45.26435" lon="4.75943">
        <ele>358</ele>
        <time>2020-07-28T08:12:17Z</time>
      </trkpt>
      <trkpt lat="45.26436" lon="4.75971">
        <ele>360</ele>
        <time>2020-07-28T08:12:21Z</time>
      </trkpt>
      <trkpt lat="45.26414" lon="4.76174">
        <ele>363</ele>
        <time>2020-07-28T08:12:49Z</time>
      </trkpt>
      <trkpt lat="45.26434" lon="4.76326">
        <ele>362</ele>
        <time>2020-07-28T08:13:07Z</time>
      </trkpt>
      <trkpt lat="45.26424" lon="4.76474">
        <ele>362</ele>
        <time>2020-07-28T08:13:24Z</time>
      </trkpt>
      <trkpt lat="45.26467" lon="4.76704">
        <ele>361</ele>
        <time>2020-07-28T08:13:51Z</time>
      </trkpt>
      <trkpt lat="45.26503" lon="4.76829">
        <ele>360</ele>
        <time>2020-07-28T08:14:05Z</time>
      </trkpt>
      <trkpt lat="45.26528" lon="4.77023">
        <ele>358</ele>
        <time>2020-07-28T08:14:27Z</time>
      </trkpt>
      <trkpt lat="45.2654" lon="4.77055">
        <ele>358</ele>
        <time>2020-07-28T08:14:31Z</time>
      </trkpt>
      <trkpt lat="45.26566" lon="4.7711">
        <ele>357</ele>
        <time>2020-07-28T08:14:38Z</time>
      </trkpt>
      <trkpt lat="45.26571" lon="4.77137">
        <ele>357</ele>
        <time>2020-07-28T08:14:41Z</time>
      </trkpt>
      <trkpt lat="45.26593" lon="4.77389">
        <ele>360</ele>
        <time>2020-07-28T08:15:11Z</time>
      </trkpt>
      <trkpt lat="45.26615" lon="4.77564">
        <ele>362</ele>
        <time>2020-07-28T08:15:39Z</time>
      </trkpt>
      <trkpt lat="45.26613" lon="4.77602">
        <ele>361</ele>
        <time>2020-07-28T08:15:47Z</time>
      </trkpt>
      <trkpt lat="45.2661" lon="4.77616">
        <ele>361</ele>
        <time>2020-07-28T08:15:51Z</time>
      </trkpt>
      <trkpt lat="45.26541" lon="4.77757">
        <ele>354</ele>
        <time>2020-07-28T08:16:21Z</time>
      </trkpt>
      <trkpt lat="45.26474" lon="4.77941">
        <ele>346</ele>
        <time>2020-07-28T08:16:40Z</time>
      </trkpt>
      <trkpt lat="45.26473" lon="4.7795">
        <ele>346</ele>
        <time>2020-07-28T08:16:41Z</time>
      </trkpt>
      <trkpt lat="45.26499" lon="4.7804">
        <ele>342</ele>
        <time>2020-07-28T08:16:53Z</time>
      </trkpt>
      <trkpt lat="45.26501" lon="4.78044">
        <ele>342</ele>
        <time>2020-07-28T08:16:54Z</time>
      </trkpt>
      <trkpt lat="45.26505" lon="4.78046">
        <ele>341</ele>
        <time>2020-07-28T08:16:55Z</time>
      </trkpt>
      <trkpt lat="45.26509" lon="4.78046">
        <ele>341</ele>
        <time>2020-07-28T08:16:56Z</time>
      </trkpt>
      <trkpt lat="45.26515" lon="4.78041">
        <ele>341</ele>
        <time>2020-07-28T08:16:58Z</time>
      </trkpt>
      <trkpt lat="45.26519" lon="4.78036">
        <ele>342</ele>
        <time>2020-07-28T08:17:00Z</time>
      </trkpt>
      <trkpt lat="45.26519" lon="4.78028">
        <ele>342</ele>
        <time>2020-07-28T08:17:18Z</time>
      </trkpt>
      <trkpt lat="45.26516" lon="4.78025">
        <ele>342</ele>
        <time>2020-07-28T08:17:22Z</time>
      </trkpt>
    </trkseg>
  </trk>
</gpx>